Time,TemperatureF,DewpointF,PressureIn,WindDirection,WindDirectionDegrees,WindSpeedMPH,WindSpeedGustMPH,Humidity,HourlyPrecipIn,Conditions,Clouds,dailyrainin,SoftwareType,DateUTC
2013-04-01 00:00:00,39.5,32.9,29.75,NNW,343,7.0,7.0,77,0.00,,---,0.00,VWS V14.00,2013-04-01 04:00:00,
2013-04-01 00:01:00,39.3,32.7,29.75,NNW,339,16.0,22.0,77,0.00,,---,0.00,VWS V14.00,2013-04-01 04:01:00,
2013-04-01 00:05:00,39.3,32.7,29.75,NW,324,10.0,22.0,77,0.00,,---,0.00,VWS V14.00,2013-04-01 04:05:00,
2013-04-01 00:06:00,39.3,32.7,29.75,NNW,336,9.0,22.0,77,0.00,,---,0.00,VWS V14.00,2013-04-01 04:06:00,
2013-04-01 00:08:00,39.3,32.7,29.75,NNW,345,15.0,22.0,77,0.00,,---,0.00,VWS V14.00,2013-04-01 04:08:00,
2013-04-01 00:10:00,39.2,32.6,29.75,NW,319,6.0,22.0,77,0.00,,---,0.00,VWS V14.00,2013-04-01 04:10:00,
2013-04-01 00:13:00,39.2,32.6,29.75,NNW,329,3.0,22.0,77,0.00,,---,0.00,VWS V14.00,2013-04-01 04:13:00,
2013-04-01 00:14:00,39.1,32.5,29.75,NNW,343,6.0,22.0,77,0.00,,---,0.00,VWS V14.00,2013-04-01 04:14:00,
2013-04-01 00:15:00,39.1,32.5,29.75,NW,320,7.0,22.0,77,0.00,,---,0.00,VWS V14.00,2013-04-01 04:15:00,
2013-04-01 00:19:00,39.0,32.1,29.75,NW,313,15.0,22.0,76,0.00,,---,0.00,VWS V14.00,2013-04-01 04:19:00,
2013-04-01 00:20:00,39.0,32.1,29.75,WNW,301,10.0,22.0,76,0.00,,---,0.00,VWS V14.00,2013-04-01 04:20:00,
2013-04-01 00:21:00,39.0,32.1,29.75,NW,319,5.0,22.0,76,0.00,,---,0.00,VWS V14.00,2013-04-01 04:21:00,
2013-04-01 00:23:00,39.0,32.1,29.75,NNW,348,3.0,22.0,76,0.00,,---,0.00,VWS V14.00,2013-04-01 04:23:00,
2013-04-01 00:27:00,39.0,32.1,29.75,North,355,4.0,22.0,76,0.00,,---,0.00,VWS V14.00,2013-04-01 04:27:00,
2013-04-01 00:28:00,38.9,31.7,29.75,NNW,339,6.0,22.0,75,0.00,,---,0.00,VWS V14.00,2013-04-01 04:28:00,
2013-04-01 00:29:00,38.9,31.7,29.75,NW,311,11.0,14.0,75,0.00,,---,0.00,VWS V14.00,2013-04-01 04:29:00,
2013-04-01 00:32:00,38.8,31.2,29.75,NW,309,5.0,16.0,74,0.00,,---,0.00,VWS V14.00,2013-04-01 04:32:00,
2013-04-01 00:34:00,38.8,31.2,29.75,NNW,342,4.0,16.0,74,0.00,,---,0.00,VWS V14.00,2013-04-01 04:34:00,
2013-04-01 00:35:00,38.8,30.9,29.75,NNW,342,15.0,20.0,73,0.00,,---,0.00,VWS V14.00,2013-04-01 04:35:00,
2013-04-01 00:38:00,38.7,30.8,29.75,NW,322,7.0,20.0,73,0.00,,---,0.00,VWS V14.00,2013-04-01 04:38:00,
2013-04-01 00:39:00,38.7,30.8,29.76,West,261,9.0,20.0,73,0.00,,---,0.00,VWS V14.00,2013-04-01 04:39:00,
2013-04-01 00:40:00,38.5,30.6,29.75,WNW,287,10.0,20.0,73,0.00,,---,0.00,VWS V14.00,2013-04-01 04:40:00,
2013-04-01 00:41:00,38.5,30.6,29.75,NNW,340,15.0,20.0,73,0.00,,---,0.00,VWS V14.00,2013-04-01 04:41:00,
2013-04-01 00:44:00,38.4,30.5,29.75,West,279,6.0,20.0,73,0.00,,---,0.00,VWS V14.00,2013-04-01 04:44:00,
2013-04-01 00:45:00,38.3,30.4,29.76,NNW,344,15.0,20.0,73,0.00,,---,0.00,VWS V14.00,2013-04-01 04:45:00,
2013-04-01 00:47:00,38.2,30.7,29.76,North,350,9.0,20.0,74,0.00,,---,0.00,VWS V14.00,2013-04-01 04:47:00,
2013-04-01 00:49:00,38.1,30.6,29.76,NW,326,7.0,20.0,74,0.00,,---,0.00,VWS V14.00,2013-04-01 04:49:00,
2013-04-01 00:50:00,38.1,30.9,29.76,WNW,292,6.0,20.0,75,0.00,,---,0.00,VWS V14.00,2013-04-01 04:50:00,
2013-04-01 00:54:00,37.7,30.8,29.76,NNW,337,13.0,20.0,76,0.00,,---,0.00,VWS V14.00,2013-04-01 04:54:00,
2013-04-01 00:55:00,37.6,31.1,29.76,NNW,347,1.0,20.0,77,0.00,,---,0.00,VWS V14.00,2013-04-01 04:55:00,
2013-04-01 00:56:00,37.5,31.0,29.76,NNW,338,3.0,20.0,77,0.00,,---,0.00,VWS V14.00,2013-04-01 04:56:00,
2013-04-01 00:57:00,37.5,31.3,29.76,NW,321,12.0,20.0,78,0.00,,---,0.00,VWS V14.00,2013-04-01 04:57:00,
2013-04-01 01:00:00,37.3,31.4,29.75,NNW,347,6.0,6.0,79,0.00,,---,0.00,VWS V14.00,2013-04-01 05:00:00,
2013-04-01 01:01:00,37.3,31.4,29.75,NW,319,5.0,11.0,79,0.00,,---,0.00,VWS V14.00,2013-04-01 05:01:00,
2013-04-01 01:03:00,37.3,31.4,29.75,NW,322,3.0,11.0,79,0.00,,---,0.00,VWS V14.00,2013-04-01 05:03:00,
2013-04-01 01:04:00,37.2,31.3,29.75,North,360,12.0,18.0,79,0.00,,---,0.00,VWS V14.00,2013-04-01 05:04:00,
2013-04-01 01:05:00,37.1,31.5,29.76,NNW,334,4.0,18.0,80,0.00,,---,0.00,VWS V14.00,2013-04-01 05:05:00,
2013-04-01 01:09:00,37.0,31.4,29.76,NNW,338,6.0,18.0,80,0.00,,---,0.00,VWS V14.00,2013-04-01 05:09:00,
2013-04-01 01:10:00,36.9,31.6,29.76,NW,325,6.0,18.0,81,0.00,,---,0.00,VWS V14.00,2013-04-01 05:10:00,
2013-04-01 01:11:00,36.9,31.6,29.76,NNW,338,4.0,18.0,81,0.00,,---,0.00,VWS V14.00,2013-04-01 05:11:00,
2013-04-01 01:12:00,36.9,31.6,29.76,North,355,14.0,18.0,81,0.00,,---,0.00,VWS V14.00,2013-04-01 05:12:00,
2013-04-01 01:14:00,36.8,31.8,29.76,NW,326,14.0,18.0,82,0.00,,---,0.00,VWS V14.00,2013-04-01 05:14:00,
2013-04-01 01:16:00,36.7,31.7,29.76,NNW,334,12.0,18.0,82,0.00,,---,0.00,VWS V14.00,2013-04-01 05:16:00,
2013-04-01 01:17:00,36.6,31.6,29.76,NW,323,4.0,18.0,82,0.00,,---,0.00,VWS V14.00,2013-04-01 05:17:00,
2013-04-01 01:20:00,36.6,31.6,29.76,NW,304,2.0,18.0,82,0.00,,---,0.00,VWS V14.00,2013-04-01 05:20:00,
2013-04-01 01:22:00,36.6,31.6,29.76,NNW,348,8.0,18.0,82,0.00,,---,0.00,VWS V14.00,2013-04-01 05:22:00,
2013-04-01 01:24:00,36.6,31.6,29.76,North,349,7.0,18.0,82,0.00,,---,0.00,VWS V14.00,2013-04-01 05:24:00,
2013-04-01 01:27:00,36.7,31.7,29.76,NNW,338,11.0,18.0,82,0.00,,---,0.00,VWS V14.00,2013-04-01 05:27:00,
2013-04-01 01:28:00,36.7,31.7,29.76,NW,315,4.0,18.0,82,0.00,,---,0.00,VWS V14.00,2013-04-01 05:28:00,
2013-04-01 01:30:00,36.7,31.7,29.76,NW,323,1.0,10.0,82,0.00,,---,0.00,VWS V14.00,2013-04-01 05:30:00,
2013-04-01 01:32:00,36.7,31.7,29.76,NNW,333,6.0,10.0,82,0.00,,---,0.00,VWS V14.00,2013-04-01 05:32:00,
2013-04-01 01:35:00,36.7,31.7,29.76,NNW,334,7.0,12.0,82,0.00,,---,0.00,VWS V14.00,2013-04-01 05:35:00,
2013-04-01 01:37:00,36.8,31.5,29.76,NNW,345,4.0,12.0,81,0.00,,---,0.00,VWS V14.00,2013-04-01 05:37:00,
2013-04-01 01:38:00,36.8,31.5,29.76,NNW,338,4.0,12.0,81,0.00,,---,0.00,VWS V14.00,2013-04-01 05:38:00,
2013-04-01 01:40:00,36.8,31.5,29.76,North,355,2.0,12.0,81,0.00,,---,0.00,VWS V14.00,2013-04-01 05:40:00,
2013-04-01 01:42:00,36.8,31.5,29.77,NNW,331,5.0,18.0,81,0.00,,---,0.00,VWS V14.00,2013-04-01 05:42:00,
2013-04-01 01:45:00,36.9,31.3,29.76,North,355,7.0,18.0,80,0.00,,---,0.00,VWS V14.00,2013-04-01 05:45:00,
2013-04-01 01:48:00,36.9,31.0,29.77,NW,325,10.0,18.0,79,0.00,,---,0.00,VWS V14.00,2013-04-01 05:48:00,
2013-04-01 01:50:00,36.9,31.0,29.77,NNW,333,18.0,18.0,79,0.00,,---,0.00,VWS V14.00,2013-04-01 05:50:00,
2013-04-01 01:52:00,36.9,30.7,29.77,NNE,25,22.0,22.0,78,0.00,,---,0.00,VWS V14.00,2013-04-01 05:52:00,
2013-04-01 01:57:00,36.6,29.8,29.78,North,349,17.0,23.0,76,0.00,,---,0.00,VWS V14.00,2013-04-01 05:57:00,
2013-04-01 01:58:00,36.4,29.2,29.78,North,355,13.0,24.0,75,0.00,,---,0.00,VWS V14.00,2013-04-01 05:58:00,
2013-04-01 02:02:00,35.6,27.5,29.78,NNE,17,16.0,22.0,72,0.00,,---,0.00,VWS V14.00,2013-04-01 06:02:00,
2013-04-01 02:03:00,35.6,27.1,29.78,North,350,4.0,22.0,71,0.00,,---,0.00,VWS V14.00,2013-04-01 06:03:00,
2013-04-01 02:08:00,35.3,26.5,29.79,NNE,24,7.0,25.0,70,0.00,,---,0.00,VWS V14.00,2013-04-01 06:08:00,
2013-04-01 02:12:00,35.0,25.5,29.79,North,355,18.0,25.0,68,0.00,,---,0.00,VWS V14.00,2013-04-01 06:12:00,
2013-04-01 02:13:00,35.0,25.5,29.80,NNE,14,14.0,25.0,68,0.00,,---,0.00,VWS V14.00,2013-04-01 06:13:00,
2013-04-01 02:15:00,34.9,25.8,29.80,NNW,348,2.0,25.0,69,0.00,,---,0.00,VWS V14.00,2013-04-01 06:15:00,
2013-04-01 02:16:00,34.9,25.8,29.80,NNE,33,4.0,25.0,69,0.00,,---,0.00,VWS V14.00,2013-04-01 06:16:00,
2013-04-01 02:17:00,34.9,25.8,29.80,North,350,19.0,25.0,69,0.00,,---,0.00,VWS V14.00,2013-04-01 06:17:00,
2013-04-01 02:18:00,34.8,25.7,29.80,NNE,26,17.0,25.0,69,0.00,,---,0.00,VWS V14.00,2013-04-01 06:18:00,
2013-04-01 02:22:00,34.8,25.7,29.80,North,355,5.0,25.0,69,0.00,,---,0.00,VWS V14.00,2013-04-01 06:22:00,
2013-04-01 02:23:00,34.8,25.7,29.80,NNW,338,4.0,25.0,69,0.00,,---,0.00,VWS V14.00,2013-04-01 06:23:00,
2013-04-01 02:26:00,34.7,25.2,29.80,North,360,7.0,25.0,68,0.00,,---,0.00,VWS V14.00,2013-04-01 06:26:00,
2013-04-01 02:28:00,34.5,25.0,29.80,NNE,14,5.0,25.0,68,0.00,,---,0.00,VWS V14.00,2013-04-01 06:28:00,
2013-04-01 02:32:00,34.4,25.0,29.80,North,360,6.0,20.0,68,0.00,,---,0.00,VWS V14.00,2013-04-01 06:32:00,
2013-04-01 02:33:00,34.4,25.0,29.80,NNE,13,3.0,20.0,68,0.00,,---,0.00,VWS V14.00,2013-04-01 06:33:00,
2013-04-01 02:36:00,34.4,25.3,29.81,NW,306,3.0,20.0,69,0.00,,---,0.00,VWS V14.00,2013-04-01 06:36:00,
2013-04-01 02:37:00,34.3,24.9,29.81,North,360,11.0,20.0,68,0.00,,---,0.00,VWS V14.00,2013-04-01 06:37:00,
2013-04-01 02:38:00,34.3,24.9,29.81,North,355,5.0,20.0,68,0.00,,---,0.00,VWS V14.00,2013-04-01 06:38:00,
2013-04-01 02:39:00,34.2,24.8,29.81,North,355,6.0,20.0,68,0.00,,---,0.00,VWS V14.00,2013-04-01 06:39:00,
2013-04-01 02:43:00,34.0,24.9,29.81,North,360,5.0,20.0,69,0.00,,---,0.00,VWS V14.00,2013-04-01 06:43:00,
2013-04-01 02:44:00,33.9,24.8,29.81,NNW,344,5.0,20.0,69,0.00,,---,0.00,VWS V14.00,2013-04-01 06:44:00,
2013-04-01 02:47:00,33.8,24.7,29.81,NNW,341,3.0,20.0,69,0.00,,---,0.00,VWS V14.00,2013-04-01 06:47:00,
2013-04-01 02:48:00,33.7,24.6,29.81,NW,323,5.0,20.0,69,0.00,,---,0.00,VWS V14.00,2013-04-01 06:48:00,
2013-04-01 02:50:00,33.6,24.5,29.81,NNW,346,9.0,20.0,69,0.00,,---,0.00,VWS V14.00,2013-04-01 06:50:00,
2013-04-01 02:51:00,33.6,24.5,29.81,NE,40,9.0,20.0,69,0.00,,---,0.00,VWS V14.00,2013-04-01 06:51:00,
2013-04-01 02:54:00,33.5,24.8,29.81,North,350,14.0,20.0,70,0.00,,---,0.00,VWS V14.00,2013-04-01 06:54:00,
2013-04-01 02:57:00,33.4,24.7,29.81,NNE,23,5.0,20.0,70,0.00,,---,0.00,VWS V14.00,2013-04-01 06:57:00,
2013-04-01 02:59:00,33.4,24.7,29.81,NNW,347,2.0,4.0,70,0.00,,---,0.00,VWS V14.00,2013-04-01 06:59:00,
2013-04-01 03:00:00,33.4,24.7,29.81,NNW,342,4.0,5.0,70,0.00,,---,0.00,VWS V14.00,2013-04-01 07:00:00,
2013-04-01 03:02:00,33.3,24.9,29.81,North,5,2.0,13.0,71,0.00,,---,0.00,VWS V14.00,2013-04-01 07:02:00,
2013-04-01 03:05:00,33.3,24.6,29.82,North,5,3.0,13.0,70,0.00,,---,0.00,VWS V14.00,2013-04-01 07:05:00,
2013-04-01 03:07:00,33.2,24.5,29.82,NNE,26,2.0,13.0,70,0.00,,---,0.00,VWS V14.00,2013-04-01 07:07:00,
2013-04-01 03:09:00,33.2,24.5,29.82,NW,315,5.0,13.0,70,0.00,,---,0.00,VWS V14.00,2013-04-01 07:09:00,
2013-04-01 03:12:00,33.2,24.5,29.82,NNE,33,6.0,13.0,70,0.00,,---,0.00,VWS V14.00,2013-04-01 07:12:00,
2013-04-01 03:14:00,33.3,24.9,29.81,NNE,28,10.0,13.0,71,0.00,,---,0.00,VWS V14.00,2013-04-01 07:14:00,
2013-04-01 03:18:00,33.2,24.5,29.82,North,360,4.0,16.0,70,0.00,,---,0.00,VWS V14.00,2013-04-01 07:18:00,
2013-04-01 03:20:00,33.0,24.6,29.82,North,360,4.0,16.0,71,0.00,,---,0.00,VWS V14.00,2013-04-01 07:20:00,
2013-04-01 03:21:00,33.0,24.6,29.82,NW,319,6.0,16.0,71,0.00,,---,0.00,VWS V14.00,2013-04-01 07:21:00,
2013-04-01 03:22:00,33.1,24.7,29.82,NNW,348,4.0,16.0,71,0.00,,---,0.00,VWS V14.00,2013-04-01 07:22:00,
2013-04-01 03:24:00,33.0,24.6,29.82,North,360,4.0,16.0,71,0.00,,---,0.00,VWS V14.00,2013-04-01 07:24:00,
2013-04-01 03:26:00,33.0,24.6,29.82,North,5,5.0,16.0,71,0.00,,---,0.00,VWS V14.00,2013-04-01 07:26:00,
2013-04-01 03:27:00,33.0,24.6,29.82,North,5,2.0,16.0,71,0.00,,---,0.00,VWS V14.00,2013-04-01 07:27:00,
2013-04-01 03:28:00,33.0,24.6,29.82,NNE,14,5.0,16.0,71,0.00,,---,0.00,VWS V14.00,2013-04-01 07:28:00,
2013-04-01 03:31:00,32.9,24.5,29.83,NNE,14,13.0,14.0,71,0.00,,---,0.00,VWS V14.00,2013-04-01 07:31:00,
2013-04-01 03:32:00,32.9,24.5,29.83,NNW,342,11.0,14.0,71,0.00,,---,0.00,VWS V14.00,2013-04-01 07:32:00,
2013-04-01 03:35:00,32.9,24.2,29.83,NW,323,2.0,14.0,70,0.00,,---,0.00,VWS V14.00,2013-04-01 07:35:00,
2013-04-01 03:36:00,32.9,24.2,29.83,NW,323,9.0,14.0,70,0.00,,---,0.00,VWS V14.00,2013-04-01 07:36:00,
2013-04-01 03:40:00,32.8,24.1,29.83,North,5,1.0,14.0,70,0.00,,---,0.00,VWS V14.00,2013-04-01 07:40:00,
2013-04-01 03:41:00,32.8,24.1,29.83,NNW,343,1.0,14.0,70,0.00,,---,0.00,VWS V14.00,2013-04-01 07:41:00,
2013-04-01 03:46:00,32.7,24.0,29.83,NNW,348,5.0,14.0,70,0.00,,---,0.00,VWS V14.00,2013-04-01 07:46:00,
2013-04-01 03:47:00,32.7,24.0,29.83,North,11,4.0,14.0,70,0.00,,---,0.00,VWS V14.00,2013-04-01 07:47:00,
2013-04-01 03:49:00,32.6,23.9,29.83,North,360,4.0,14.0,70,0.00,,---,0.00,VWS V14.00,2013-04-01 07:49:00,
2013-04-01 03:51:00,32.6,23.9,29.83,North,5,1.0,14.0,70,0.00,,---,0.00,VWS V14.00,2013-04-01 07:51:00,
2013-04-01 03:52:00,32.6,23.9,29.83,North,5,1.0,14.0,70,0.00,,---,0.00,VWS V14.00,2013-04-01 07:52:00,
2013-04-01 03:56:00,32.4,23.7,29.83,North,349,2.0,14.0,70,0.00,,---,0.00,VWS V14.00,2013-04-01 07:56:00,
2013-04-01 03:57:00,32.4,23.7,29.83,North,360,6.0,14.0,70,0.00,,---,0.00,VWS V14.00,2013-04-01 07:57:00,
2013-04-01 03:58:00,32.4,23.7,29.84,NW,317,4.0,14.0,70,0.00,,---,0.00,VWS V14.00,2013-04-01 07:58:00,
2013-04-01 04:00:00,32.3,23.6,29.84,NNW,331,4.0,4.0,70,0.00,,---,0.00,VWS V14.00,2013-04-01 08:00:00,
2013-04-01 04:03:00,32.2,23.5,29.84,NNW,336,1.0,4.0,70,0.00,,---,0.00,VWS V14.00,2013-04-01 08:03:00,
2013-04-01 04:04:00,32.1,23.4,29.84,North,355,1.0,4.0,70,0.00,,---,0.00,VWS V14.00,2013-04-01 08:04:00,
2013-04-01 04:05:00,32.1,23.4,29.84,North,355,2.0,4.0,70,0.00,,---,0.00,VWS V14.00,2013-04-01 08:05:00,
2013-04-01 04:09:00,32.1,23.8,29.84,NNW,340,2.0,6.0,71,0.00,,---,0.00,VWS V14.00,2013-04-01 08:09:00,
2013-04-01 04:10:00,32.1,23.4,29.84,NNW,339,1.0,6.0,70,0.00,,---,0.00,VWS V14.00,2013-04-01 08:10:00,
2013-04-01 04:12:00,32.1,23.4,29.84,North,349,2.0,6.0,70,0.00,,---,0.00,VWS V14.00,2013-04-01 08:12:00,
2013-04-01 04:14:00,32.0,23.3,29.84,NNW,348,0.0,6.0,70,0.00,,---,0.00,VWS V14.00,2013-04-01 08:14:00,
2013-04-01 04:17:00,31.9,23.2,29.84,North,355,1.0,6.0,70,0.00,,---,0.00,VWS V14.00,2013-04-01 08:17:00,
2013-04-01 04:18:00,31.9,23.6,29.84,North,360,1.0,6.0,71,0.00,,---,0.00,VWS V14.00,2013-04-01 08:18:00,
2013-04-01 04:19:00,31.8,23.5,29.84,North,355,3.0,6.0,71,0.00,,---,0.00,VWS V14.00,2013-04-01 08:19:00,
2013-04-01 04:23:00,31.7,23.0,29.84,NNE,18,13.0,17.0,70,0.00,,---,0.00,VWS V14.00,2013-04-01 08:23:00,
2013-04-01 04:24:00,31.7,23.0,29.84,NNW,331,5.0,17.0,70,0.00,,---,0.00,VWS V14.00,2013-04-01 08:24:00,
2013-04-01 04:25:00,31.7,23.0,29.85,NNW,346,6.0,17.0,70,0.00,,---,0.00,VWS V14.00,2013-04-01 08:25:00,
2013-04-01 04:28:00,31.7,22.7,29.85,NNE,14,5.0,17.0,69,0.00,,---,0.00,VWS V14.00,2013-04-01 08:28:00,
2013-04-01 04:29:00,31.7,22.7,29.85,NNW,339,4.0,5.0,69,0.00,,---,0.00,VWS V14.00,2013-04-01 08:29:00,
2013-04-01 04:30:00,31.7,22.7,29.85,NNE,12,3.0,5.0,69,0.00,,---,0.00,VWS V14.00,2013-04-01 08:30:00,
2013-04-01 04:33:00,31.7,22.4,29.85,North,355,4.0,5.0,68,0.00,,---,0.00,VWS V14.00,2013-04-01 08:33:00,
2013-04-01 04:34:00,31.7,22.4,29.85,NNW,331,5.0,7.0,68,0.00,,---,0.00,VWS V14.00,2013-04-01 08:34:00,
2013-04-01 04:35:00,31.7,22.4,29.85,NNW,346,1.0,7.0,68,0.00,,---,0.00,VWS V14.00,2013-04-01 08:35:00,
2013-04-01 04:36:00,31.6,22.3,29.85,North,360,3.0,7.0,68,0.00,,---,0.00,VWS V14.00,2013-04-01 08:36:00,
2013-04-01 04:41:00,31.5,22.2,29.85,NNW,327,3.0,7.0,68,0.00,,---,0.00,VWS V14.00,2013-04-01 08:41:00,
2013-04-01 04:42:00,31.5,22.2,29.86,North,360,5.0,8.0,68,0.00,,---,0.00,VWS V14.00,2013-04-01 08:42:00,
2013-04-01 04:43:00,31.5,22.2,29.86,NW,309,0.0,8.0,68,0.00,,---,0.00,VWS V14.00,2013-04-01 08:43:00,
2013-04-01 04:46:00,31.5,22.2,29.86,North,349,1.0,8.0,68,0.00,,---,0.00,VWS V14.00,2013-04-01 08:46:00,
2013-04-01 04:47:00,31.5,22.2,29.86,NNW,348,3.0,8.0,68,0.00,,---,0.00,VWS V14.00,2013-04-01 08:47:00,
2013-04-01 04:48:00,31.4,22.1,29.86,NNW,348,2.0,8.0,68,0.00,,---,0.00,VWS V14.00,2013-04-01 08:48:00,
2013-04-01 04:49:00,31.4,22.1,29.86,NNW,342,2.0,8.0,68,0.00,,---,0.00,VWS V14.00,2013-04-01 08:49:00,
2013-04-01 04:51:00,31.3,22.0,29.86,North,349,4.0,8.0,68,0.00,,---,0.00,VWS V14.00,2013-04-01 08:51:00,
2013-04-01 04:52:00,31.3,22.0,29.86,NNW,346,3.0,8.0,68,0.00,,---,0.00,VWS V14.00,2013-04-01 08:52:00,
2013-04-01 04:53:00,31.2,21.9,29.86,NNW,340,2.0,8.0,68,0.00,,---,0.00,VWS V14.00,2013-04-01 08:53:00,
2013-04-01 04:54:00,31.2,21.9,29.86,NNW,340,1.0,8.0,68,0.00,,---,0.00,VWS V14.00,2013-04-01 08:54:00,
2013-04-01 04:56:00,31.1,21.8,29.86,NNW,339,2.0,8.0,68,0.00,,---,0.00,VWS V14.00,2013-04-01 08:56:00,
2013-04-01 04:58:00,31.0,21.7,29.86,North,360,0.0,8.0,68,0.00,,---,0.00,VWS V14.00,2013-04-01 08:58:00,
2013-04-01 04:59:00,31.0,21.7,29.86,North,349,4.0,4.0,68,0.00,,---,0.00,VWS V14.00,2013-04-01 08:59:00,
2013-04-01 05:00:00,31.0,21.7,29.86,NNW,330,1.0,6.0,68,0.00,,---,0.00,VWS V14.00,2013-04-01 09:00:00,
2013-04-01 05:03:00,31.0,21.7,29.87,NNW,331,7.0,7.0,68,0.00,,---,0.00,VWS V14.00,2013-04-01 09:03:00,
2013-04-01 05:04:00,31.0,21.7,29.87,North,355,3.0,9.0,68,0.00,,---,0.00,VWS V14.00,2013-04-01 09:04:00,
2013-04-01 05:05:00,31.0,21.7,29.87,North,355,7.0,9.0,68,0.00,,---,0.00,VWS V14.00,2013-04-01 09:05:00,
2013-04-01 05:07:00,31.0,21.3,29.87,North,355,1.0,11.0,67,0.00,,---,0.00,VWS V14.00,2013-04-01 09:07:00,
2013-04-01 05:12:00,31.1,21.4,29.87,NNE,13,7.0,14.0,67,0.00,,---,0.00,VWS V14.00,2013-04-01 09:12:00,
2013-04-01 05:13:00,31.0,21.0,29.87,NNW,340,6.0,14.0,66,0.00,,---,0.00,VWS V14.00,2013-04-01 09:13:00,
2013-04-01 05:16:00,31.0,21.0,29.87,NNW,346,1.0,14.0,66,0.00,,---,0.00,VWS V14.00,2013-04-01 09:16:00,
2013-04-01 05:17:00,31.0,21.0,29.87,North,360,3.0,14.0,66,0.00,,---,0.00,VWS V14.00,2013-04-01 09:17:00,
2013-04-01 05:18:00,31.0,21.0,29.87,North,355,4.0,14.0,66,0.00,,---,0.00,VWS V14.00,2013-04-01 09:18:00,
2013-04-01 05:22:00,30.9,20.9,29.88,NNW,342,1.0,14.0,66,0.00,,---,0.00,VWS V14.00,2013-04-01 09:22:00,
2013-04-01 05:24:00,30.8,20.8,29.88,NNW,342,2.0,14.0,66,0.00,,---,0.00,VWS V14.00,2013-04-01 09:24:00,
2013-04-01 05:26:00,30.8,20.8,29.88,NNW,346,2.0,14.0,66,0.00,,---,0.00,VWS V14.00,2013-04-01 09:26:00,
2013-04-01 05:27:00,30.8,20.8,29.88,NNW,347,0.0,14.0,66,0.00,,---,0.00,VWS V14.00,2013-04-01 09:27:00,
2013-04-01 05:29:00,30.7,20.7,29.88,NNW,348,2.0,4.0,66,0.00,,---,0.00,VWS V14.00,2013-04-01 09:29:00,
2013-04-01 05:31:00,30.7,20.7,29.88,NNW,346,2.0,9.0,66,0.00,,---,0.00,VWS V14.00,2013-04-01 09:31:00,
2013-04-01 05:34:00,30.7,20.7,29.88,North,355,1.0,9.0,66,0.00,,---,0.00,VWS V14.00,2013-04-01 09:34:00,
2013-04-01 05:36:00,30.7,20.7,29.88,North,355,4.0,9.0,66,0.00,,---,0.00,VWS V14.00,2013-04-01 09:36:00,
2013-04-01 05:37:00,30.7,20.7,29.88,NNE,22,3.0,9.0,66,0.00,,---,0.00,VWS V14.00,2013-04-01 09:37:00,
2013-04-01 05:42:00,30.6,20.6,29.88,North,11,4.0,9.0,66,0.00,,---,0.00,VWS V14.00,2013-04-01 09:42:00,
2013-04-01 05:43:00,30.6,20.6,29.89,NNW,341,3.0,11.0,66,0.00,,---,0.00,VWS V14.00,2013-04-01 09:43:00,
2013-04-01 05:44:00,30.6,20.6,29.89,NNW,340,7.0,11.0,66,0.00,,---,0.00,VWS V14.00,2013-04-01 09:44:00,
2013-04-01 05:47:00,30.6,20.6,29.89,NNW,342,0.0,11.0,66,0.00,,---,0.00,VWS V14.00,2013-04-01 09:47:00,
2013-04-01 05:49:00,30.6,20.6,29.89,NNW,332,2.0,11.0,66,0.00,,---,0.00,VWS V14.00,2013-04-01 09:49:00,
2013-04-01 05:50:00,30.5,20.5,29.89,NNW,334,1.0,11.0,66,0.00,,---,0.00,VWS V14.00,2013-04-01 09:50:00,
2013-04-01 05:54:00,30.5,20.1,29.89,North,355,1.0,13.0,65,0.00,,---,0.00,VWS V14.00,2013-04-01 09:54:00,
2013-04-01 05:55:00,30.5,20.1,29.89,North,350,4.0,13.0,65,0.00,,---,0.00,VWS V14.00,2013-04-01 09:55:00,
2013-04-01 05:58:00,30.5,20.1,29.89,NNW,348,2.0,13.0,65,0.00,,---,0.00,VWS V14.00,2013-04-01 09:58:00,
2013-04-01 05:59:00,30.5,20.1,29.89,NNW,348,2.0,3.0,65,0.00,,---,0.00,VWS V14.00,2013-04-01 09:59:00,
2013-04-01 06:00:00,30.4,20.1,29.89,NNW,331,5.0,6.0,65,0.00,,---,0.00,VWS V14.00,2013-04-01 10:00:00,
2013-04-01 06:01:00,30.4,20.1,29.89,NNW,341,3.0,9.0,65,0.00,,---,0.00,VWS V14.00,2013-04-01 10:01:00,
2013-04-01 06:04:00,30.3,20.0,29.89,NNW,339,4.0,9.0,65,0.00,,---,0.00,VWS V14.00,2013-04-01 10:04:00,
2013-04-01 06:05:00,30.3,20.0,29.89,NNW,337,1.0,9.0,65,0.00,,---,0.00,VWS V14.00,2013-04-01 10:05:00,
2013-04-01 06:06:00,30.3,20.0,29.89,NNW,338,2.0,9.0,65,0.00,,---,0.00,VWS V14.00,2013-04-01 10:06:00,
2013-04-01 06:07:00,30.3,20.0,29.90,NNW,338,3.0,9.0,65,0.00,,---,0.00,VWS V14.00,2013-04-01 10:07:00,
2013-04-01 06:09:00,30.3,20.0,29.90,North,350,4.0,9.0,65,0.00,,---,0.00,VWS V14.00,2013-04-01 10:09:00,
2013-04-01 06:10:00,30.3,20.0,29.90,NNW,347,3.0,9.0,65,0.00,,---,0.00,VWS V14.00,2013-04-01 10:10:00,
2013-04-01 06:12:00,30.3,20.0,29.90,North,355,2.0,9.0,65,0.00,,---,0.00,VWS V14.00,2013-04-01 10:12:00,
2013-04-01 06:13:00,30.2,19.9,29.90,North,351,0.0,9.0,65,0.00,,---,0.00,VWS V14.00,2013-04-01 10:13:00,
2013-04-01 06:16:00,30.2,19.9,29.90,NNW,341,3.0,9.0,65,0.00,,---,0.00,VWS V14.00,2013-04-01 10:16:00,
2013-04-01 06:18:00,30.2,19.9,29.90,NNW,341,1.0,9.0,65,0.00,,---,0.00,VWS V14.00,2013-04-01 10:18:00,
2013-04-01 06:19:00,30.2,19.9,29.90,NNW,341,1.0,9.0,65,0.00,,---,0.00,VWS V14.00,2013-04-01 10:19:00,
2013-04-01 06:22:00,30.1,19.8,29.90,NNW,340,1.0,9.0,65,0.00,,---,0.00,VWS V14.00,2013-04-01 10:22:00,
2013-04-01 06:24:00,30.1,19.8,29.90,NNW,340,2.0,9.0,65,0.00,,---,0.00,VWS V14.00,2013-04-01 10:24:00,
2013-04-01 06:25:00,30.0,19.7,29.90,NNW,340,1.0,9.0,65,0.00,,---,0.00,VWS V14.00,2013-04-01 10:25:00,
2013-04-01 06:28:00,30.0,20.0,29.90,NNW,340,3.0,9.0,66,0.00,,---,0.00,VWS V14.00,2013-04-01 10:28:00,
2013-04-01 06:29:00,29.9,19.9,29.90,NNW,338,0.0,3.0,66,0.00,,---,0.00,VWS V14.00,2013-04-01 10:29:00,
2013-04-01 06:32:00,29.9,19.9,29.90,NNW,338,2.0,3.0,66,0.00,,---,0.00,VWS V14.00,2013-04-01 10:32:00,
2013-04-01 06:33:00,29.9,19.9,29.91,NNW,338,2.0,3.0,66,0.00,,---,0.00,VWS V14.00,2013-04-01 10:33:00,
2013-04-01 06:34:00,29.8,19.8,29.91,NNW,327,2.0,4.0,66,0.00,,---,0.00,VWS V14.00,2013-04-01 10:34:00,
2013-04-01 06:35:00,29.8,19.8,29.91,NNW,328,1.0,4.0,66,0.00,,---,0.00,VWS V14.00,2013-04-01 10:35:00,
2013-04-01 06:39:00,29.8,19.8,29.91,NNW,327,2.0,4.0,66,0.00,,---,0.00,VWS V14.00,2013-04-01 10:39:00,
2013-04-01 06:40:00,29.7,19.8,29.91,NNW,327,1.0,4.0,66,0.00,,---,0.00,VWS V14.00,2013-04-01 10:40:00,
2013-04-01 06:44:00,29.7,19.8,29.91,NNW,327,0.0,4.0,66,0.00,,---,0.00,VWS V14.00,2013-04-01 10:44:00,
2013-04-01 06:45:00,29.7,19.8,29.91,NNW,327,0.0,4.0,66,0.00,,---,0.00,VWS V14.00,2013-04-01 10:45:00,
2013-04-01 06:47:00,29.6,19.6,29.91,NNW,327,1.0,4.0,66,0.00,,---,0.00,VWS V14.00,2013-04-01 10:47:00,
2013-04-01 06:48:00,29.6,19.6,29.91,NNW,327,1.0,4.0,66,0.00,,---,0.00,VWS V14.00,2013-04-01 10:48:00,
2013-04-01 06:49:00,29.6,20.0,29.91,NNW,327,0.0,4.0,67,0.00,,---,0.00,VWS V14.00,2013-04-01 10:49:00,
2013-04-01 06:52:00,29.6,19.6,29.91,NNW,327,1.0,4.0,66,0.00,,---,0.00,VWS V14.00,2013-04-01 10:52:00,
2013-04-01 06:55:00,29.5,19.9,29.91,NNW,327,0.0,4.0,67,0.00,,---,0.00,VWS V14.00,2013-04-01 10:55:00,
2013-04-01 06:56:00,29.5,19.9,29.91,NNW,327,0.0,4.0,67,0.00,,---,0.00,VWS V14.00,2013-04-01 10:56:00,
2013-04-01 06:58:00,29.5,19.9,29.91,NNW,327,0.0,4.0,67,0.00,,---,0.00,VWS V14.00,2013-04-01 10:58:00,
2013-04-01 06:59:00,29.5,19.9,29.92,NNW,327,1.0,1.0,67,0.00,,---,0.00,VWS V14.00,2013-04-01 10:59:00,
2013-04-01 07:00:00,29.5,19.9,29.92,NNW,327,0.0,2.0,67,0.00,,---,0.00,VWS V14.00,2013-04-01 11:00:00,
2013-04-01 07:01:00,29.5,19.9,29.92,NW,326,1.0,2.0,67,0.00,,---,0.00,VWS V14.00,2013-04-01 11:01:00,
2013-04-01 07:04:00,29.5,19.9,29.92,NNW,327,2.0,2.0,67,0.00,,---,0.00,VWS V14.00,2013-04-01 11:04:00,
2013-04-01 07:07:00,29.5,19.9,29.92,NW,326,0.0,2.0,67,0.00,,---,0.00,VWS V14.00,2013-04-01 11:07:00,
2013-04-01 07:08:00,29.5,19.9,29.92,NNW,327,1.0,2.0,67,0.00,,---,0.00,VWS V14.00,2013-04-01 11:08:00,
2013-04-01 07:10:00,29.5,19.9,29.92,NNW,327,1.0,3.0,67,0.00,,---,0.00,VWS V14.00,2013-04-01 11:10:00,
2013-04-01 07:12:00,29.4,19.8,29.92,NNW,329,2.0,4.0,67,0.00,,---,0.00,VWS V14.00,2013-04-01 11:12:00,
2013-04-01 07:13:00,29.4,20.2,29.92,NNW,328,2.0,4.0,68,0.00,,---,0.00,VWS V14.00,2013-04-01 11:13:00,
2013-04-01 07:14:00,29.4,20.2,29.92,NNW,338,1.0,4.0,68,0.00,,---,0.00,VWS V14.00,2013-04-01 11:14:00,
2013-04-01 07:15:00,29.4,20.2,29.92,NNW,337,2.0,4.0,68,0.00,,---,0.00,VWS V14.00,2013-04-01 11:15:00,
2013-04-01 07:17:00,29.5,20.3,29.92,NNW,343,2.0,5.0,68,0.00,,---,0.00,VWS V14.00,2013-04-01 11:17:00,
2013-04-01 07:19:00,29.5,20.3,29.92,NNW,344,4.0,6.0,68,0.00,,---,0.00,VWS V14.00,2013-04-01 11:19:00,
2013-04-01 07:22:00,29.5,20.3,29.92,North,350,2.0,6.0,68,0.00,,---,0.00,VWS V14.00,2013-04-01 11:22:00,
2013-04-01 07:24:00,29.5,20.3,29.92,North,350,9.0,12.0,68,0.00,,---,0.00,VWS V14.00,2013-04-01 11:24:00,
2013-04-01 07:27:00,29.5,20.3,29.93,NNW,342,4.0,12.0,68,0.00,,---,0.00,VWS V14.00,2013-04-01 11:27:00,
2013-04-01 07:28:00,29.5,20.3,29.93,North,360,2.0,12.0,68,0.00,,---,0.00,VWS V14.00,2013-04-01 11:28:00,
2013-04-01 07:30:00,29.5,20.6,29.93,NNW,343,6.0,6.0,69,0.00,,---,0.00,VWS V14.00,2013-04-01 11:30:00,
2013-04-01 07:32:00,29.5,20.6,29.93,NNW,340,3.0,6.0,69,0.00,,---,0.00,VWS V14.00,2013-04-01 11:32:00,
2013-04-01 07:35:00,29.6,20.7,29.93,NNW,339,2.0,7.0,69,0.00,,---,0.00,VWS V14.00,2013-04-01 11:35:00,
2013-04-01 07:36:00,29.6,20.7,29.93,North,5,5.0,7.0,69,0.00,,---,0.00,VWS V14.00,2013-04-01 11:36:00,
2013-04-01 07:37:00,29.7,20.8,29.93,NNW,346,3.0,7.0,69,0.00,,---,0.00,VWS V14.00,2013-04-01 11:37:00,
2013-04-01 07:41:00,29.7,20.8,29.93,NNW,338,2.0,7.0,69,0.00,,---,0.00,VWS V14.00,2013-04-01 11:41:00,
2013-04-01 07:42:00,29.8,20.9,29.93,NNW,338,2.0,7.0,69,0.00,,---,0.00,VWS V14.00,2013-04-01 11:42:00,
2013-04-01 07:43:00,29.8,20.9,29.93,North,349,3.0,7.0,69,0.00,,---,0.00,VWS V14.00,2013-04-01 11:43:00,
2013-04-01 07:44:00,29.8,20.5,29.93,NNW,333,3.0,7.0,68,0.00,,---,0.00,VWS V14.00,2013-04-01 11:44:00,
2013-04-01 07:47:00,29.8,20.5,29.93,NNW,346,3.0,7.0,68,0.00,,---,0.00,VWS V14.00,2013-04-01 11:47:00,
2013-04-01 07:49:00,29.8,20.5,29.93,North,360,3.0,7.0,68,0.00,,---,0.00,VWS V14.00,2013-04-01 11:49:00,
2013-04-01 07:50:00,29.9,20.6,29.93,North,355,3.0,7.0,68,0.00,,---,0.00,VWS V14.00,2013-04-01 11:50:00,
2013-04-01 07:53:00,29.9,20.6,29.94,North,355,2.0,7.0,68,0.00,,---,0.00,VWS V14.00,2013-04-01 11:53:00,
2013-04-01 07:54:00,29.9,20.6,29.94,North,355,2.0,7.0,68,0.00,,---,0.00,VWS V14.00,2013-04-01 11:54:00,
2013-04-01 07:57:00,29.9,20.6,29.94,North,355,2.0,7.0,68,0.00,,---,0.00,VWS V14.00,2013-04-01 11:57:00,
2013-04-01 07:58:00,29.9,20.6,29.94,North,355,3.0,7.0,68,0.00,,---,0.00,VWS V14.00,2013-04-01 11:58:00,
2013-04-01 07:59:00,29.9,20.6,29.95,North,355,2.0,3.0,68,0.00,,---,0.00,VWS V14.00,2013-04-01 11:59:00,
2013-04-01 08:02:00,29.9,20.6,29.95,North,355,1.0,3.0,68,0.00,,---,0.00,VWS V14.00,2013-04-01 12:02:00,
2013-04-01 08:04:00,29.9,20.6,29.95,North,350,2.0,3.0,68,0.00,,---,0.00,VWS V14.00,2013-04-01 12:04:00,
2013-04-01 08:07:00,30.0,20.7,29.95,North,349,0.0,3.0,68,0.00,,---,0.00,VWS V14.00,2013-04-01 12:07:00,
2013-04-01 08:08:00,30.0,20.7,29.95,North,349,1.0,3.0,68,0.00,,---,0.00,VWS V14.00,2013-04-01 12:08:00,
2013-04-01 08:13:00,30.1,20.8,29.96,NNW,342,3.0,6.0,68,0.00,,---,0.00,VWS V14.00,2013-04-01 12:13:00,
2013-04-01 08:14:00,30.1,20.8,29.96,NNW,343,5.0,6.0,68,0.00,,---,0.00,VWS V14.00,2013-04-01 12:14:00,
2013-04-01 08:15:00,30.2,20.9,29.96,North,349,2.0,7.0,68,0.00,,---,0.00,VWS V14.00,2013-04-01 12:15:00,
2013-04-01 08:19:00,30.3,21.4,29.96,North,9,3.0,18.0,69,0.00,,---,0.00,VWS V14.00,2013-04-01 12:19:00,
2013-04-01 08:21:00,30.4,21.5,29.96,North,10,7.0,18.0,69,0.00,,---,0.00,VWS V14.00,2013-04-01 12:21:00,
2013-04-01 08:22:00,30.4,21.5,29.96,North,5,10.0,18.0,69,0.00,,---,0.00,VWS V14.00,2013-04-01 12:22:00,
2013-04-01 08:24:00,30.3,21.7,29.96,North,360,6.0,18.0,70,0.00,,---,0.00,VWS V14.00,2013-04-01 12:24:00,
2013-04-01 08:25:00,30.3,21.7,29.96,NNE,29,9.0,18.0,70,0.00,,---,0.00,VWS V14.00,2013-04-01 12:25:00,
2013-04-01 08:26:00,30.3,22.0,29.96,North,355,4.0,18.0,71,0.00,,---,0.00,VWS V14.00,2013-04-01 12:26:00,
2013-04-01 08:28:00,30.3,22.0,29.96,NNE,21,7.0,18.0,71,0.00,,---,0.00,VWS V14.00,2013-04-01 12:28:00,
2013-04-01 08:31:00,30.3,22.4,29.97,NNE,20,7.0,11.0,72,0.00,,---,0.00,VWS V14.00,2013-04-01 12:31:00,
2013-04-01 08:33:00,30.4,22.5,29.97,NNE,25,6.0,12.0,72,0.00,,---,0.00,VWS V14.00,2013-04-01 12:33:00,
2013-04-01 08:34:00,30.3,22.4,29.97,North,355,7.0,12.0,72,0.00,,---,0.00,VWS V14.00,2013-04-01 12:34:00,
2013-04-01 08:37:00,30.3,22.4,29.97,North,360,3.0,14.0,72,0.00,,---,0.00,VWS V14.00,2013-04-01 12:37:00,
2013-04-01 08:39:00,30.3,22.4,29.97,NW,319,4.0,14.0,72,0.00,,---,0.00,VWS V14.00,2013-04-01 12:39:00,
2013-04-01 08:42:00,30.1,22.5,29.97,North,360,4.0,14.0,73,0.00,,---,0.00,VWS V14.00,2013-04-01 12:42:00,
2013-04-01 08:44:00,30.0,22.4,29.97,NW,319,5.0,14.0,73,0.00,,---,0.00,VWS V14.00,2013-04-01 12:44:00,
2013-04-01 08:45:00,30.0,22.4,29.97,NNW,343,14.0,14.0,73,0.00,,---,0.00,VWS V14.00,2013-04-01 12:45:00,
2013-04-01 08:49:00,29.9,22.0,29.97,North,355,7.0,17.0,72,0.00,,---,0.00,VWS V14.00,2013-04-01 12:49:00,
2013-04-01 08:50:00,29.9,21.7,29.97,North,355,4.0,17.0,71,0.00,,---,0.00,VWS V14.00,2013-04-01 12:50:00,
2013-04-01 08:51:00,29.9,21.7,29.97,NW,310,5.0,17.0,71,0.00,,---,0.00,VWS V14.00,2013-04-01 12:51:00,
2013-04-01 08:57:00,30.4,21.8,29.97,NNW,346,14.0,17.0,70,0.00,,---,0.00,VWS V14.00,2013-04-01 12:57:00,
2013-04-01 08:58:00,30.6,21.3,29.97,NNW,342,2.0,17.0,68,0.00,,---,0.00,VWS V14.00,2013-04-01 12:58:00,
2013-04-01 09:00:00,30.9,21.2,29.98,NNW,327,6.0,6.0,67,0.00,,---,0.00,VWS V14.00,2013-04-01 13:00:00,
2013-04-01 09:02:00,31.3,20.9,29.98,NNW,327,7.0,15.0,65,0.00,,---,0.00,VWS V14.00,2013-04-01 13:02:00,
2013-04-01 09:03:00,31.4,20.6,29.98,NW,323,12.0,18.0,64,0.00,,---,0.00,VWS V14.00,2013-04-01 13:03:00,
2013-04-01 09:04:00,31.5,20.4,29.98,North,5,8.0,18.0,63,0.00,,---,0.00,VWS V14.00,2013-04-01 13:04:00,
2013-04-01 09:06:00,31.7,20.2,29.98,WNW,296,6.0,18.0,62,0.00,,---,0.00,VWS V14.00,2013-04-01 13:06:00,
2013-04-01 09:09:00,32.1,19.8,29.98,North,9,16.0,18.0,60,0.00,,---,0.00,VWS V14.00,2013-04-01 13:09:00,
2013-04-01 09:10:00,32.1,19.8,29.98,NE,37,7.0,18.0,60,0.00,,---,0.00,VWS V14.00,2013-04-01 13:10:00,
2013-04-01 09:13:00,32.0,19.3,29.98,WNW,297,13.0,18.0,59,0.00,,---,0.00,VWS V14.00,2013-04-01 13:13:00,
2013-04-01 09:15:00,31.8,19.1,29.98,NNW,344,10.0,19.0,59,0.00,,---,0.00,VWS V14.00,2013-04-01 13:15:00,
2013-04-01 09:17:00,31.6,18.9,29.99,North,351,5.0,19.0,59,0.00,,---,0.00,VWS V14.00,2013-04-01 13:17:00,
2013-04-01 09:19:00,31.5,18.8,29.99,NNW,339,4.0,19.0,59,0.00,,---,0.00,VWS V14.00,2013-04-01 13:19:00,
2013-04-01 09:20:00,31.4,18.7,29.99,NNW,336,5.0,19.0,59,0.00,,---,0.00,VWS V14.00,2013-04-01 13:20:00,
2013-04-01 09:22:00,31.5,18.8,29.99,North,350,5.0,19.0,59,0.00,,---,0.00,VWS V14.00,2013-04-01 13:22:00,
2013-04-01 09:23:00,31.5,18.8,29.99,North,355,14.0,19.0,59,0.00,,---,0.00,VWS V14.00,2013-04-01 13:23:00,
2013-04-01 09:24:00,31.5,18.8,29.99,North,360,4.0,19.0,59,0.00,,---,0.00,VWS V14.00,2013-04-01 13:24:00,
2013-04-01 09:26:00,31.5,18.8,29.99,NNE,21,10.0,19.0,59,0.00,,---,0.00,VWS V14.00,2013-04-01 13:26:00,
2013-04-01 09:30:00,31.8,19.1,29.99,NNW,334,14.0,16.0,59,0.00,,---,0.00,VWS V14.00,2013-04-01 13:30:00,
2013-04-01 09:31:00,32.0,18.9,29.99,NNW,347,6.0,16.0,58,0.00,,---,0.00,VWS V14.00,2013-04-01 13:31:00,
2013-04-01 09:34:00,32.1,19.0,29.99,NNW,337,10.0,16.0,58,0.00,,---,0.00,VWS V14.00,2013-04-01 13:34:00,
2013-04-01 09:35:00,32.2,19.1,29.99,NW,321,4.0,16.0,58,0.00,,---,0.00,VWS V14.00,2013-04-01 13:35:00,
2013-04-01 09:36:00,32.4,18.9,29.99,North,355,12.0,16.0,57,0.00,,---,0.00,VWS V14.00,2013-04-01 13:36:00,
2013-04-01 09:39:00,32.6,19.1,29.99,North,11,8.0,18.0,57,0.00,,---,0.00,VWS V14.00,2013-04-01 13:39:00,
2013-04-01 09:40:00,32.7,19.2,29.99,NNW,348,14.0,18.0,57,0.00,,---,0.00,VWS V14.00,2013-04-01 13:40:00,
2013-04-01 09:42:00,32.6,18.2,29.99,North,355,16.0,18.0,55,0.00,,---,0.00,VWS V14.00,2013-04-01 13:42:00,
2013-04-01 09:43:00,32.5,18.1,29.99,NNW,330,5.0,18.0,55,0.00,,---,0.00,VWS V14.00,2013-04-01 13:43:00,
2013-04-01 09:45:00,32.3,17.5,29.99,North,349,9.0,26.0,54,0.00,,---,0.00,VWS V14.00,2013-04-01 13:45:00,
2013-04-01 09:46:00,32.2,17.4,29.99,NW,325,8.0,26.0,54,0.00,,---,0.00,VWS V14.00,2013-04-01 13:46:00,
2013-04-01 09:47:00,32.0,17.7,29.99,North,355,6.0,26.0,55,0.00,,---,0.00,VWS V14.00,2013-04-01 13:47:00,
2013-04-01 09:49:00,31.8,17.5,30.00,NNE,17,9.0,26.0,55,0.00,,---,0.00,VWS V14.00,2013-04-01 13:49:00,
2013-04-01 09:51:00,31.8,17.9,30.00,North,11,4.0,26.0,56,0.00,,---,0.00,VWS V14.00,2013-04-01 13:51:00,
2013-04-01 09:53:00,31.7,17.4,30.00,North,355,15.0,26.0,55,0.00,,---,0.00,VWS V14.00,2013-04-01 13:53:00,
2013-04-01 09:55:00,31.8,17.5,30.00,North,350,7.0,26.0,55,0.00,,---,0.00,VWS V14.00,2013-04-01 13:55:00,
2013-04-01 09:57:00,31.8,17.5,30.00,NW,318,6.0,26.0,55,0.00,,---,0.00,VWS V14.00,2013-04-01 13:57:00,
2013-04-01 09:58:00,31.8,17.5,30.00,NE,40,14.0,26.0,55,0.00,,---,0.00,VWS V14.00,2013-04-01 13:58:00,
2013-04-01 09:59:00,31.9,17.6,30.00,NNW,348,10.0,14.0,55,0.00,,---,0.00,VWS V14.00,2013-04-01 13:59:00,
2013-04-01 10:02:00,32.1,17.8,30.00,NNE,15,17.0,17.0,55,0.00,,---,0.00,VWS V14.00,2013-04-01 14:02:00,
2013-04-01 10:05:00,32.1,17.8,30.00,NNW,331,1.0,17.0,55,0.00,,---,0.00,VWS V14.00,2013-04-01 14:05:00,
2013-04-01 10:06:00,32.2,17.9,30.00,North,355,11.0,17.0,55,0.00,,---,0.00,VWS V14.00,2013-04-01 14:06:00,
2013-04-01 10:07:00,32.2,17.9,30.00,NNW,334,9.0,17.0,55,0.00,,---,0.00,VWS V14.00,2013-04-01 14:07:00,
2013-04-01 10:10:00,32.2,17.9,30.00,NNE,23,5.0,17.0,55,0.00,,---,0.00,VWS V14.00,2013-04-01 14:10:00,
2013-04-01 10:13:00,32.5,18.1,30.00,North,11,6.0,17.0,55,0.00,,---,0.00,VWS V14.00,2013-04-01 14:13:00,
2013-04-01 10:17:00,32.5,17.7,30.00,North,355,9.0,17.0,54,0.00,,---,0.00,VWS V14.00,2013-04-01 14:17:00,
2013-04-01 10:19:00,32.5,17.7,30.00,North,9,13.0,20.0,54,0.00,,---,0.00,VWS V14.00,2013-04-01 14:19:00,
2013-04-01 10:22:00,32.5,17.7,30.00,NNW,348,6.0,20.0,54,0.00,,---,0.00,VWS V14.00,2013-04-01 14:22:00,
2013-04-01 10:23:00,32.5,17.7,30.00,North,350,4.0,20.0,54,0.00,,---,0.00,VWS V14.00,2013-04-01 14:23:00,
2013-04-01 10:25:00,32.5,17.3,30.00,NNW,339,16.0,20.0,53,0.00,,---,0.00,VWS V14.00,2013-04-01 14:25:00,
2013-04-01 10:28:00,32.5,17.7,30.00,North,11,5.0,20.0,54,0.00,,---,0.00,VWS V14.00,2013-04-01 14:28:00,
2013-04-01 10:29:00,32.6,17.8,30.01,North,355,6.0,6.0,54,0.00,,---,0.00,VWS V14.00,2013-04-01 14:29:00,
2013-04-01 10:32:00,32.8,17.6,30.01,NNE,17,12.0,12.0,53,0.00,,---,0.00,VWS V14.00,2013-04-01 14:32:00,
2013-04-01 10:34:00,32.8,17.1,30.01,NNW,333,10.0,17.0,52,0.00,,---,0.00,VWS V14.00,2013-04-01 14:34:00,
2013-04-01 10:35:00,32.8,17.1,30.00,North,360,14.0,17.0,52,0.00,,---,0.00,VWS V14.00,2013-04-01 14:35:00,
2013-04-01 10:36:00,32.8,17.1,30.00,NNW,342,16.0,18.0,52,0.00,,---,0.00,VWS V14.00,2013-04-01 14:36:00,
2013-04-01 10:37:00,32.8,17.1,30.00,NNW,346,10.0,18.0,52,0.00,,---,0.00,VWS V14.00,2013-04-01 14:37:00,
2013-04-01 10:39:00,32.8,17.1,30.00,WNW,285,6.0,18.0,52,0.00,,---,0.00,VWS V14.00,2013-04-01 14:39:00,
2013-04-01 10:41:00,33.0,16.9,30.01,North,360,16.0,18.0,51,0.00,,---,0.00,VWS V14.00,2013-04-01 14:41:00,
2013-04-01 10:47:00,32.6,16.5,30.01,WNW,296,14.0,20.0,51,0.00,,---,0.00,VWS V14.00,2013-04-01 14:47:00,
2013-04-01 10:48:00,32.6,16.5,30.01,NW,319,6.0,20.0,51,0.00,,---,0.00,VWS V14.00,2013-04-01 14:48:00,
2013-04-01 10:50:00,32.7,16.6,30.01,NW,321,6.0,20.0,51,0.00,,---,0.00,VWS V14.00,2013-04-01 14:50:00,
2013-04-01 10:52:00,32.6,16.9,30.01,NW,317,6.0,20.0,52,0.00,,---,0.00,VWS V14.00,2013-04-01 14:52:00,
2013-04-01 10:55:00,32.6,16.9,30.01,NNW,327,16.0,20.0,52,0.00,,---,0.00,VWS V14.00,2013-04-01 14:55:00,
2013-04-01 10:56:00,32.6,16.9,30.01,NNW,340,11.0,20.0,52,0.00,,---,0.00,VWS V14.00,2013-04-01 14:56:00,
2013-04-01 10:58:00,32.5,16.9,30.01,NW,308,16.0,21.0,52,0.00,,---,0.00,VWS V14.00,2013-04-01 14:58:00,
2013-04-01 11:01:00,32.3,16.7,30.01,NW,326,17.0,18.0,52,0.00,,---,0.00,VWS V14.00,2013-04-01 15:01:00,
2013-04-01 11:03:00,32.2,16.1,30.02,NW,313,15.0,21.0,51,0.00,,---,0.00,VWS V14.00,2013-04-01 15:03:00,
2013-04-01 11:04:00,32.2,16.1,30.02,NNW,348,14.0,21.0,51,0.00,,---,0.00,VWS V14.00,2013-04-01 15:04:00,
2013-04-01 11:09:00,32.3,15.3,30.02,NW,321,12.0,21.0,49,0.00,,---,0.00,VWS V14.00,2013-04-01 15:09:00,
2013-04-01 11:12:00,32.9,15.9,30.02,NW,309,16.0,25.0,49,0.00,,---,0.00,VWS V14.00,2013-04-01 15:12:00,
2013-04-01 11:13:00,33.0,15.9,30.02,WNW,283,9.0,25.0,49,0.00,,---,0.00,VWS V14.00,2013-04-01 15:13:00,
2013-04-01 11:14:00,33.3,16.2,30.02,NW,313,3.0,25.0,49,0.00,,---,0.00,VWS V14.00,2013-04-01 15:14:00,
2013-04-01 11:17:00,33.5,16.4,30.02,NW,313,9.0,25.0,49,0.00,,---,0.00,VWS V14.00,2013-04-01 15:17:00,
2013-04-01 11:19:00,33.5,16.4,30.02,NNW,327,4.0,25.0,49,0.00,,---,0.00,VWS V14.00,2013-04-01 15:19:00,
2013-04-01 11:20:00,33.5,16.4,30.02,NW,317,3.0,25.0,49,0.00,,---,0.00,VWS V14.00,2013-04-01 15:20:00,
2013-04-01 11:21:00,33.5,16.9,30.02,North,355,1.0,25.0,50,0.00,,---,0.00,VWS V14.00,2013-04-01 15:21:00,
2013-04-01 11:22:00,33.5,16.9,30.02,NNW,342,9.0,25.0,50,0.00,,---,0.00,VWS V14.00,2013-04-01 15:22:00,
2013-04-01 11:25:00,33.3,16.7,30.02,NNW,332,5.0,25.0,50,0.00,,---,0.00,VWS V14.00,2013-04-01 15:25:00,
2013-04-01 11:27:00,33.1,16.5,30.02,NNW,338,5.0,25.0,50,0.00,,---,0.00,VWS V14.00,2013-04-01 15:27:00,
2013-04-01 11:28:00,33.1,17.0,30.02,NNW,327,17.0,25.0,51,0.00,,---,0.00,VWS V14.00,2013-04-01 15:28:00,
2013-04-01 11:30:00,33.1,17.0,30.02,WNW,297,12.0,20.0,51,0.00,,---,0.00,VWS V14.00,2013-04-01 15:30:00,
2013-04-01 11:32:00,33.1,17.0,30.02,North,5,14.0,20.0,51,0.00,,---,0.00,VWS V14.00,2013-04-01 15:32:00,
2013-04-01 11:34:00,33.0,16.9,30.02,North,349,21.0,23.0,51,0.00,,---,0.00,VWS V14.00,2013-04-01 15:34:00,
2013-04-01 11:37:00,32.8,17.1,30.03,North,349,14.0,23.0,52,0.00,,---,0.00,VWS V14.00,2013-04-01 15:37:00,
2013-04-01 11:38:00,32.8,17.1,30.03,NNW,348,7.0,23.0,52,0.00,,---,0.00,VWS V14.00,2013-04-01 15:38:00,
2013-04-01 11:42:00,32.6,16.9,30.03,NNE,33,13.0,23.0,52,0.00,,---,0.00,VWS V14.00,2013-04-01 15:42:00,
2013-04-01 11:43:00,32.6,17.4,30.03,NNW,346,13.0,23.0,53,0.00,,---,0.00,VWS V14.00,2013-04-01 15:43:00,
2013-04-01 11:44:00,32.7,17.5,30.03,NNW,342,9.0,23.0,53,0.00,,---,0.00,VWS V14.00,2013-04-01 15:44:00,
2013-04-01 11:47:00,33.0,18.2,30.03,WNW,301,9.0,23.0,54,0.00,,---,0.00,VWS V14.00,2013-04-01 15:47:00,
2013-04-01 11:48:00,33.4,18.6,30.03,NW,306,7.0,23.0,54,0.00,,---,0.00,VWS V14.00,2013-04-01 15:48:00,
2013-04-01 11:49:00,33.6,19.2,30.03,NW,311,6.0,23.0,55,0.00,,---,0.00,VWS V14.00,2013-04-01 15:49:00,
2013-04-01 11:50:00,33.7,19.3,30.03,WNW,288,7.0,23.0,55,0.00,,---,0.00,VWS V14.00,2013-04-01 15:50:00,
2013-04-01 11:52:00,33.9,19.0,30.03,NNW,341,12.0,23.0,54,0.00,,---,0.00,VWS V14.00,2013-04-01 15:52:00,
2013-04-01 11:54:00,33.8,18.5,30.03,North,350,17.0,23.0,53,0.00,,---,0.00,VWS V14.00,2013-04-01 15:54:00,
2013-04-01 11:55:00,33.7,18.4,30.03,NNW,340,14.0,23.0,53,0.00,,---,0.00,VWS V14.00,2013-04-01 15:55:00,
2013-04-01 11:57:00,33.4,18.1,30.03,NW,315,7.0,23.0,53,0.00,,---,0.00,VWS V14.00,2013-04-01 15:57:00,
2013-04-01 12:00:00,33.4,18.1,30.03,North,355,3.0,13.0,53,0.00,,---,0.00,VWS V14.00,2013-04-01 16:00:00,
2013-04-01 12:02:00,33.6,17.9,30.03,NNW,346,9.0,19.0,52,0.00,,---,0.00,VWS V14.00,2013-04-01 16:02:00,
2013-04-01 12:05:00,33.9,17.7,30.04,NW,321,9.0,21.0,51,0.00,,---,0.00,VWS V14.00,2013-04-01 16:05:00,
2013-04-01 12:07:00,33.9,17.7,30.04,WNW,291,11.0,22.0,51,0.00,,---,0.00,VWS V14.00,2013-04-01 16:07:00,
2013-04-01 12:08:00,33.9,18.1,30.04,WNW,298,11.0,22.0,52,0.00,,---,0.00,VWS V14.00,2013-04-01 16:08:00,
2013-04-01 12:10:00,33.7,18.0,30.04,NNW,346,10.0,23.0,52,0.00,,---,0.00,VWS V14.00,2013-04-01 16:10:00,
2013-04-01 12:12:00,33.7,18.0,30.04,NNW,329,19.0,23.0,52,0.00,,---,0.00,VWS V14.00,2013-04-01 16:12:00,
2013-04-01 12:15:00,33.9,17.7,30.04,NW,315,15.0,23.0,51,0.00,,---,0.00,VWS V14.00,2013-04-01 16:15:00,
2013-04-01 12:16:00,33.9,17.7,30.04,West,279,11.0,23.0,51,0.00,,---,0.00,VWS V14.00,2013-04-01 16:16:00,
2013-04-01 12:19:00,34.2,17.5,30.04,NW,315,3.0,23.0,50,0.00,,---,0.00,VWS V14.00,2013-04-01 16:19:00,
2013-04-01 12:20:00,34.4,17.7,30.04,North,355,15.0,23.0,50,0.00,,---,0.00,VWS V14.00,2013-04-01 16:20:00,
2013-04-01 12:22:00,34.4,17.7,30.04,North,351,10.0,23.0,50,0.00,,---,0.00,VWS V14.00,2013-04-01 16:22:00,
2013-04-01 12:24:00,34.4,18.2,30.03,North,355,18.0,23.0,51,0.00,,---,0.00,VWS V14.00,2013-04-01 16:24:00,
2013-04-01 12:27:00,34.0,16.9,30.04,North,5,13.0,23.0,49,0.00,,---,0.00,VWS V14.00,2013-04-01 16:27:00,
2013-04-01 12:28:00,34.0,16.9,30.04,North,360,5.0,23.0,49,0.00,,---,0.00,VWS V14.00,2013-04-01 16:28:00,
2013-04-01 12:30:00,34.0,16.9,30.04,North,355,6.0,10.0,49,0.00,,---,0.00,VWS V14.00,2013-04-01 16:30:00,
2013-04-01 12:33:00,33.8,16.2,30.04,NW,317,10.0,19.0,48,0.00,,---,0.00,VWS V14.00,2013-04-01 16:33:00,
2013-04-01 12:34:00,33.9,16.3,30.04,NW,326,2.0,19.0,48,0.00,,---,0.00,VWS V14.00,2013-04-01 16:34:00,
2013-04-01 12:35:00,33.9,16.8,30.04,NNW,329,15.0,23.0,49,0.00,,---,0.00,VWS V14.00,2013-04-01 16:35:00,
2013-04-01 12:38:00,34.3,17.1,30.04,NW,304,13.0,23.0,49,0.00,,---,0.00,VWS V14.00,2013-04-01 16:38:00,
2013-04-01 12:41:00,34.4,16.8,30.04,North,355,13.0,23.0,48,0.00,,---,0.00,VWS V14.00,2013-04-01 16:41:00,
2013-04-01 12:42:00,34.4,16.3,30.04,NW,309,4.0,23.0,47,0.00,,---,0.00,VWS V14.00,2013-04-01 16:42:00,
2013-04-01 12:44:00,34.4,16.3,30.04,North,350,14.0,23.0,47,0.00,,---,0.00,VWS V14.00,2013-04-01 16:44:00,
2013-04-01 12:47:00,34.4,16.3,30.04,WNW,298,7.0,23.0,47,0.00,,---,0.00,VWS V14.00,2013-04-01 16:47:00,
2013-04-01 12:49:00,34.8,16.6,30.03,NW,313,15.0,23.0,47,0.00,,---,0.00,VWS V14.00,2013-04-01 16:49:00,
2013-04-01 12:52:00,34.8,16.1,30.04,NNW,334,7.0,23.0,46,0.00,,---,0.00,VWS V14.00,2013-04-01 16:52:00,
2013-04-01 12:54:00,34.8,16.6,30.03,NW,309,9.0,23.0,47,0.00,,---,0.00,VWS V14.00,2013-04-01 16:54:00,
2013-04-01 12:57:00,34.4,17.7,30.04,NW,322,2.0,23.0,50,0.00,,---,0.00,VWS V14.00,2013-04-01 16:57:00,
2013-04-01 13:00:00,34.4,18.2,30.04,NNW,341,9.0,14.0,51,0.00,,---,0.00,VWS V14.00,2013-04-01 17:00:00,
2013-04-01 13:01:00,34.4,18.2,30.04,NNW,331,7.0,14.0,51,0.00,,---,0.00,VWS V14.00,2013-04-01 17:01:00,
2013-04-01 13:06:00,33.9,16.8,30.04,NW,321,9.0,21.0,49,0.00,,---,0.00,VWS V14.00,2013-04-01 17:06:00,
2013-04-01 13:07:00,34.0,16.9,30.04,NW,315,4.0,21.0,49,0.00,,---,0.00,VWS V14.00,2013-04-01 17:07:00,
2013-04-01 13:08:00,34.0,16.9,30.04,NNW,342,14.0,21.0,49,0.00,,---,0.00,VWS V14.00,2013-04-01 17:08:00,
2013-04-01 13:12:00,34.5,16.9,30.04,WNW,286,22.0,22.0,48,0.00,,---,0.00,VWS V14.00,2013-04-01 17:12:00,
2013-04-01 13:13:00,34.8,16.6,30.04,NW,325,18.0,22.0,47,0.00,,---,0.00,VWS V14.00,2013-04-01 17:13:00,
2013-04-01 13:15:00,35.0,16.3,30.04,NW,310,10.0,22.0,46,0.00,,---,0.00,VWS V14.00,2013-04-01 17:15:00,
2013-04-01 13:19:00,34.7,16.0,30.04,WNW,302,6.0,22.0,46,0.00,,---,0.00,VWS V14.00,2013-04-01 17:19:00,
2013-04-01 13:20:00,34.8,16.1,30.04,NNW,330,15.0,22.0,46,0.00,,---,0.00,VWS V14.00,2013-04-01 17:20:00,
2013-04-01 13:24:00,34.4,15.8,30.04,NW,311,4.0,22.0,46,0.00,,---,0.00,VWS V14.00,2013-04-01 17:24:00,
2013-04-01 13:25:00,34.4,15.8,30.04,North,349,5.0,22.0,46,0.00,,---,0.00,VWS V14.00,2013-04-01 17:25:00,
2013-04-01 13:27:00,34.5,15.9,30.04,NW,313,8.0,22.0,46,0.00,,---,0.00,VWS V14.00,2013-04-01 17:27:00,
2013-04-01 13:30:00,34.4,16.8,30.04,NW,307,15.0,18.0,48,0.00,,---,0.00,VWS V14.00,2013-04-01 17:30:00,
2013-04-01 13:33:00,34.3,16.7,30.05,NNW,345,15.0,23.0,48,0.00,,---,0.00,VWS V14.00,2013-04-01 17:33:00,
2013-04-01 13:34:00,34.4,16.8,30.05,NW,321,7.0,23.0,48,0.00,,---,0.00,VWS V14.00,2013-04-01 17:34:00,
2013-04-01 13:36:00,34.6,16.9,30.04,North,355,6.0,23.0,48,0.00,,---,0.00,VWS V14.00,2013-04-01 17:36:00,
2013-04-01 13:38:00,34.8,17.1,30.04,NW,324,5.0,23.0,48,0.00,,---,0.00,VWS V14.00,2013-04-01 17:38:00,
2013-04-01 13:42:00,34.8,16.6,30.05,NW,304,6.0,24.0,47,0.00,,---,0.00,VWS V14.00,2013-04-01 17:42:00,
2013-04-01 13:43:00,34.8,16.6,30.05,NNW,337,7.0,24.0,47,0.00,,---,0.00,VWS V14.00,2013-04-01 17:43:00,
2013-04-01 13:44:00,34.8,16.6,30.05,NW,325,5.0,24.0,47,0.00,,---,0.00,VWS V14.00,2013-04-01 17:44:00,
2013-04-01 13:47:00,34.7,16.5,30.05,NNW,327,4.0,24.0,47,0.00,,---,0.00,VWS V14.00,2013-04-01 17:47:00,
2013-04-01 13:48:00,34.7,16.5,30.05,NNW,340,15.0,24.0,47,0.00,,---,0.00,VWS V14.00,2013-04-01 17:48:00,
2013-04-01 13:50:00,34.8,16.1,30.05,WNW,296,6.0,24.0,46,0.00,,---,0.00,VWS V14.00,2013-04-01 17:50:00,
2013-04-01 13:54:00,34.5,15.9,30.05,NNW,344,10.0,24.0,46,0.00,,---,0.00,VWS V14.00,2013-04-01 17:54:00,
2013-04-01 13:55:00,34.4,16.3,30.05,NNW,336,2.0,24.0,47,0.00,,---,0.00,VWS V14.00,2013-04-01 17:55:00,
2013-04-01 13:57:00,34.4,16.8,30.05,NNW,338,4.0,24.0,48,0.00,,---,0.00,VWS V14.00,2013-04-01 17:57:00,
2013-04-01 13:59:00,34.4,17.2,30.05,NNW,338,16.0,20.0,49,0.00,,---,0.00,VWS V14.00,2013-04-01 17:59:00,
2013-04-01 14:00:00,34.1,17.0,30.05,NNW,344,16.0,21.0,49,0.00,,---,0.00,VWS V14.00,2013-04-01 18:00:00,
2013-04-01 14:02:00,33.8,17.1,30.05,NNW,338,15.0,21.0,50,0.00,,---,0.00,VWS V14.00,2013-04-01 18:02:00,
2013-04-01 14:04:00,33.8,17.6,30.05,NW,309,7.0,21.0,51,0.00,,---,0.00,VWS V14.00,2013-04-01 18:04:00,
2013-04-01 14:05:00,33.9,17.7,30.05,NNW,334,15.0,21.0,51,0.00,,---,0.00,VWS V14.00,2013-04-01 18:05:00,
2013-04-01 14:06:00,34.0,17.8,30.05,NNW,331,4.0,21.0,51,0.00,,---,0.00,VWS V14.00,2013-04-01 18:06:00,
2013-04-01 14:08:00,34.2,18.0,30.05,North,355,9.0,21.0,51,0.00,,---,0.00,VWS V14.00,2013-04-01 18:08:00,
2013-04-01 14:11:00,34.4,18.2,30.05,WNW,299,18.0,21.0,51,0.00,,---,0.00,VWS V14.00,2013-04-01 18:11:00,
2013-04-01 14:13:00,34.7,18.4,30.05,NW,318,18.0,24.0,51,0.00,,---,0.00,VWS V14.00,2013-04-01 18:13:00,
2013-04-01 14:14:00,34.9,18.2,30.05,NNW,346,10.0,24.0,50,0.00,,---,0.00,VWS V14.00,2013-04-01 18:14:00,
2013-04-01 14:18:00,35.0,18.2,30.05,NNW,334,19.0,24.0,50,0.00,,---,0.00,VWS V14.00,2013-04-01 18:18:00,
2013-04-01 14:19:00,34.9,18.2,30.05,WNW,284,8.0,24.0,50,0.00,,---,0.00,VWS V14.00,2013-04-01 18:19:00,
2013-04-01 14:20:00,34.9,18.6,30.05,WNW,300,7.0,24.0,51,0.00,,---,0.00,VWS V14.00,2013-04-01 18:20:00,
2013-04-01 14:21:00,35.1,18.8,30.05,WNW,295,6.0,24.0,51,0.00,,---,0.00,VWS V14.00,2013-04-01 18:21:00,
2013-04-01 14:23:00,35.1,18.4,30.05,NNW,338,12.0,24.0,50,0.00,,---,0.00,VWS V14.00,2013-04-01 18:23:00,
2013-04-01 14:25:00,34.8,17.6,30.06,NNW,327,14.0,25.0,49,0.00,,---,0.00,VWS V14.00,2013-04-01 18:25:00,
2013-04-01 14:26:00,34.7,17.0,30.06,NNW,333,7.0,25.0,48,0.00,,---,0.00,VWS V14.00,2013-04-01 18:26:00,
2013-04-01 14:27:00,34.4,16.8,30.05,NNE,13,6.0,25.0,48,0.00,,---,0.00,VWS V14.00,2013-04-01 18:27:00,
2013-04-01 14:28:00,34.4,16.8,30.06,WNW,290,9.0,25.0,48,0.00,,---,0.00,VWS V14.00,2013-04-01 18:28:00,
2013-04-01 14:31:00,34.4,17.2,30.06,NW,308,7.0,21.0,49,0.00,,---,0.00,VWS V14.00,2013-04-01 18:31:00,
2013-04-01 14:32:00,34.4,16.8,30.06,NNW,334,16.0,21.0,48,0.00,,---,0.00,VWS V14.00,2013-04-01 18:32:00,
2013-04-01 14:33:00,34.4,17.2,30.06,WNW,292,6.0,21.0,49,0.00,,---,0.00,VWS V14.00,2013-04-01 18:33:00,
2013-04-01 14:34:00,34.5,17.3,30.06,WNW,290,10.0,21.0,49,0.00,,---,0.00,VWS V14.00,2013-04-01 18:34:00,
2013-04-01 14:37:00,34.4,16.8,30.05,NNW,346,15.0,22.0,48,0.00,,---,0.00,VWS V14.00,2013-04-01 18:37:00,
2013-04-01 14:39:00,34.4,16.8,30.06,NW,315,9.0,22.0,48,0.00,,---,0.00,VWS V14.00,2013-04-01 18:39:00,
2013-04-01 14:41:00,34.4,16.8,30.06,WNW,297,13.0,22.0,48,0.00,,---,0.00,VWS V14.00,2013-04-01 18:41:00,
2013-04-01 14:42:00,34.4,16.3,30.06,WNW,300,17.0,23.0,47,0.00,,---,0.00,VWS V14.00,2013-04-01 18:42:00,
2013-04-01 14:44:00,34.2,15.6,30.06,NW,307,16.0,23.0,46,0.00,,---,0.00,VWS V14.00,2013-04-01 18:44:00,
2013-04-01 14:47:00,34.4,15.8,30.06,NW,312,6.0,23.0,46,0.00,,---,0.00,VWS V14.00,2013-04-01 18:47:00,
2013-04-01 14:48:00,34.6,16.0,30.06,NW,310,11.0,23.0,46,0.00,,---,0.00,VWS V14.00,2013-04-01 18:48:00,
2013-04-01 14:49:00,34.8,16.1,30.06,NNW,333,4.0,23.0,46,0.00,,---,0.00,VWS V14.00,2013-04-01 18:49:00,
2013-04-01 14:50:00,34.9,16.2,30.06,West,280,11.0,23.0,46,0.00,,---,0.00,VWS V14.00,2013-04-01 18:50:00,
2013-04-01 14:53:00,35.2,17.0,30.05,WNW,296,14.0,23.0,47,0.00,,---,0.00,VWS V14.00,2013-04-01 18:53:00,
2013-04-01 14:55:00,35.3,17.1,30.06,NNW,329,16.0,23.0,47,0.00,,---,0.00,VWS V14.00,2013-04-01 18:55:00,
2013-04-01 14:56:00,35.2,17.0,30.06,NW,326,15.0,23.0,47,0.00,,---,0.00,VWS V14.00,2013-04-01 18:56:00,
2013-04-01 14:59:00,34.4,16.8,30.06,North,350,5.0,19.0,48,0.00,,---,0.00,VWS V14.00,2013-04-01 18:59:00,
2013-04-01 15:00:00,34.2,16.6,30.06,NNW,347,4.0,19.0,48,0.00,,---,0.00,VWS V14.00,2013-04-01 19:00:00,
2013-04-01 15:01:00,34.2,17.0,30.06,NNW,340,13.0,19.0,49,0.00,,---,0.00,VWS V14.00,2013-04-01 19:01:00,
2013-04-01 15:04:00,33.9,17.2,30.06,North,5,3.0,19.0,50,0.00,,---,0.00,VWS V14.00,2013-04-01 19:04:00,
2013-04-01 15:05:00,34.0,17.3,30.06,NW,312,11.0,19.0,50,0.00,,---,0.00,VWS V14.00,2013-04-01 19:05:00,
2013-04-01 15:06:00,34.2,17.5,30.06,WNW,286,18.0,19.0,50,0.00,,---,0.00,VWS V14.00,2013-04-01 19:06:00,
2013-04-01 15:09:00,34.1,17.4,30.06,NW,308,20.0,25.0,50,0.00,,---,0.00,VWS V14.00,2013-04-01 19:09:00,
2013-04-01 15:10:00,34.2,17.5,30.06,NW,314,17.0,25.0,50,0.00,,---,0.00,VWS V14.00,2013-04-01 19:10:00,
2013-04-01 15:12:00,34.4,17.2,30.06,NNW,348,17.0,25.0,49,0.00,,---,0.00,VWS V14.00,2013-04-01 19:12:00,
2013-04-01 15:15:00,34.4,16.8,30.06,NNW,334,6.0,25.0,48,0.00,,---,0.00,VWS V14.00,2013-04-01 19:15:00,
2013-04-01 15:16:00,34.3,16.7,30.06,NW,311,14.0,25.0,48,0.00,,---,0.00,VWS V14.00,2013-04-01 19:16:00,
2013-04-01 15:18:00,34.1,16.5,30.07,WNW,298,15.0,25.0,48,0.00,,---,0.00,VWS V14.00,2013-04-01 19:18:00,
2013-04-01 15:19:00,34.1,16.5,30.07,WNW,286,6.0,25.0,48,0.00,,---,0.00,VWS V14.00,2013-04-01 19:19:00,
2013-04-01 15:22:00,34.1,17.0,30.06,WNW,288,17.0,25.0,49,0.00,,---,0.00,VWS V14.00,2013-04-01 19:22:00,
2013-04-01 15:23:00,34.2,17.5,30.07,NNW,340,21.0,25.0,50,0.00,,---,0.00,VWS V14.00,2013-04-01 19:23:00,
2013-04-01 15:24:00,34.2,17.5,30.07,North,350,17.0,25.0,50,0.00,,---,0.00,VWS V14.00,2013-04-01 19:24:00,
2013-04-01 15:28:00,34.3,17.1,30.07,North,355,14.0,25.0,49,0.00,,---,0.00,VWS V14.00,2013-04-01 19:28:00,
2013-04-01 15:29:00,34.3,17.1,30.07,West,278,9.0,15.0,49,0.00,,---,0.00,VWS V14.00,2013-04-01 19:29:00,
2013-04-01 15:33:00,34.9,16.7,30.07,NNW,346,16.0,22.0,47,0.00,,---,0.00,VWS V14.00,2013-04-01 19:33:00,
2013-04-01 15:34:00,34.9,16.7,30.07,NNW,338,14.0,22.0,47,0.00,,---,0.00,VWS V14.00,2013-04-01 19:34:00,
2013-04-01 15:35:00,34.7,16.5,30.07,NW,314,3.0,22.0,47,0.00,,---,0.00,VWS V14.00,2013-04-01 19:35:00,
2013-04-01 15:37:00,34.4,16.3,30.07,North,360,15.0,22.0,47,0.00,,---,0.00,VWS V14.00,2013-04-01 19:37:00,
2013-04-01 15:39:00,34.1,16.5,30.07,WNW,288,15.0,23.0,48,0.00,,---,0.00,VWS V14.00,2013-04-01 19:39:00,
2013-04-01 15:42:00,34.2,17.0,30.07,NW,321,13.0,23.0,49,0.00,,---,0.00,VWS V14.00,2013-04-01 19:42:00,
2013-04-01 15:44:00,34.2,17.0,30.07,North,350,14.0,23.0,49,0.00,,---,0.00,VWS V14.00,2013-04-01 19:44:00,
2013-04-01 15:47:00,33.9,16.8,30.07,NNW,338,9.0,23.0,49,0.00,,---,0.00,VWS V14.00,2013-04-01 19:47:00,
2013-04-01 15:48:00,33.9,16.8,30.06,WNW,284,11.0,23.0,49,0.00,,---,0.00,VWS V14.00,2013-04-01 19:48:00,
2013-04-01 15:49:00,33.9,16.8,30.07,NNW,344,17.0,23.0,49,0.00,,---,0.00,VWS V14.00,2013-04-01 19:49:00,
2013-04-01 15:50:00,33.7,16.6,30.07,NW,319,14.0,23.0,49,0.00,,---,0.00,VWS V14.00,2013-04-01 19:50:00,
2013-04-01 15:52:00,33.5,16.4,30.07,NW,304,13.0,23.0,49,0.00,,---,0.00,VWS V14.00,2013-04-01 19:52:00,
2013-04-01 15:54:00,33.4,16.8,30.07,NW,324,15.0,23.0,50,0.00,,---,0.00,VWS V14.00,2013-04-01 19:54:00,
2013-04-01 15:55:00,33.5,17.3,30.07,NNW,338,15.0,23.0,51,0.00,,---,0.00,VWS V14.00,2013-04-01 19:55:00,
2013-04-01 15:56:00,33.5,16.9,30.07,WNW,296,10.0,23.0,50,0.00,,---,0.00,VWS V14.00,2013-04-01 19:56:00,
2013-04-01 15:58:00,33.7,17.0,30.07,West,279,16.0,23.0,50,0.00,,---,0.00,VWS V14.00,2013-04-01 19:58:00,
2013-04-01 16:00:00,34.3,18.1,30.07,NW,307,9.0,28.0,51,0.00,,---,0.00,VWS V14.00,2013-04-01 20:00:00,
2013-04-01 16:01:00,34.3,18.1,30.07,West,263,15.0,28.0,51,0.00,,---,0.00,VWS V14.00,2013-04-01 20:01:00,
2013-04-01 16:03:00,34.2,17.5,30.07,WNW,294,10.0,28.0,50,0.00,,---,0.00,VWS V14.00,2013-04-01 20:03:00,
2013-04-01 16:04:00,34.3,17.6,30.07,WNW,302,7.0,28.0,50,0.00,,---,0.00,VWS V14.00,2013-04-01 20:04:00,
2013-04-01 16:06:00,34.4,17.7,30.07,NW,321,5.0,28.0,50,0.00,,---,0.00,VWS V14.00,2013-04-01 20:06:00,
2013-04-01 16:10:00,34.1,17.0,30.07,NW,315,13.0,28.0,49,0.00,,---,0.00,VWS V14.00,2013-04-01 20:10:00,
2013-04-01 16:11:00,34.0,16.9,30.07,WNW,300,6.0,28.0,49,0.00,,---,0.00,VWS V14.00,2013-04-01 20:11:00,
2013-04-01 16:14:00,34.1,17.0,30.07,NW,304,7.0,28.0,49,0.00,,---,0.00,VWS V14.00,2013-04-01 20:14:00,
2013-04-01 16:15:00,34.0,16.9,30.07,NW,317,16.0,28.0,49,0.00,,---,0.00,VWS V14.00,2013-04-01 20:15:00,
2013-04-01 16:18:00,33.7,16.1,30.07,NNW,334,16.0,28.0,48,0.00,,---,0.00,VWS V14.00,2013-04-01 20:18:00,
2013-04-01 16:19:00,33.5,15.9,30.07,WSW,248,11.0,28.0,48,0.00,,---,0.00,VWS V14.00,2013-04-01 20:19:00,
2013-04-01 16:20:00,33.6,16.0,30.07,NNE,19,10.0,28.0,48,0.00,,---,0.00,VWS V14.00,2013-04-01 20:20:00,
2013-04-01 16:23:00,33.7,16.6,30.07,NW,320,6.0,28.0,49,0.00,,---,0.00,VWS V14.00,2013-04-01 20:23:00,
2013-04-01 16:24:00,33.8,16.7,30.07,NNW,346,7.0,28.0,49,0.00,,---,0.00,VWS V14.00,2013-04-01 20:24:00,
2013-04-01 16:25:00,33.9,16.8,30.07,NW,311,5.0,28.0,49,0.00,,---,0.00,VWS V14.00,2013-04-01 20:25:00,
2013-04-01 16:26:00,33.9,16.8,30.07,NW,307,4.0,28.0,49,0.00,,---,0.00,VWS V14.00,2013-04-01 20:26:00,
2013-04-01 16:28:00,34.1,16.5,30.07,West,277,8.0,28.0,48,0.00,,---,0.00,VWS V14.00,2013-04-01 20:28:00,
2013-04-01 16:30:00,33.9,15.8,30.08,NNW,335,11.0,22.0,47,0.00,,---,0.00,VWS V14.00,2013-04-01 20:30:00,
2013-04-01 16:32:00,33.7,15.6,30.07,NNW,345,12.0,22.0,47,0.00,,---,0.00,VWS V14.00,2013-04-01 20:32:00,
2013-04-01 16:33:00,33.8,15.7,30.07,NW,311,16.0,22.0,47,0.00,,---,0.00,VWS V14.00,2013-04-01 20:33:00,
2013-04-01 16:34:00,34.0,15.9,30.08,NW,318,12.0,22.0,47,0.00,,---,0.00,VWS V14.00,2013-04-01 20:34:00,
2013-04-01 16:36:00,34.4,16.3,30.07,NW,306,15.0,22.0,47,0.00,,---,0.00,VWS V14.00,2013-04-01 20:36:00,
2013-04-01 16:38:00,34.4,15.8,30.07,NW,309,16.0,22.0,46,0.00,,---,0.00,VWS V14.00,2013-04-01 20:38:00,
2013-04-01 16:40:00,34.4,15.8,30.07,WNW,296,7.0,22.0,46,0.00,,---,0.00,VWS V14.00,2013-04-01 20:40:00,
2013-04-01 16:44:00,34.8,16.1,30.07,NNW,327,23.0,25.0,46,0.00,,---,0.00,VWS V14.00,2013-04-01 20:44:00,
2013-04-01 16:45:00,34.6,16.0,30.07,NW,310,12.0,25.0,46,0.00,,---,0.00,VWS V14.00,2013-04-01 20:45:00,
2013-04-01 16:47:00,34.4,15.8,30.08,NW,306,9.0,25.0,46,0.00,,---,0.00,VWS V14.00,2013-04-01 20:47:00,
2013-04-01 16:48:00,34.4,15.8,30.08,NNW,343,12.0,25.0,46,0.00,,---,0.00,VWS V14.00,2013-04-01 20:48:00,
2013-04-01 16:49:00,34.4,15.8,30.08,NW,321,17.0,25.0,46,0.00,,---,0.00,VWS V14.00,2013-04-01 20:49:00,
2013-04-01 16:50:00,34.4,15.8,30.08,NW,326,14.0,25.0,46,0.00,,---,0.00,VWS V14.00,2013-04-01 20:50:00,
2013-04-01 16:53:00,34.4,16.3,30.07,WNW,302,6.0,25.0,47,0.00,,---,0.00,VWS V14.00,2013-04-01 20:53:00,
2013-04-01 16:54:00,34.5,16.4,30.07,WNW,290,7.0,25.0,47,0.00,,---,0.00,VWS V14.00,2013-04-01 20:54:00,
2013-04-01 16:55:00,34.6,16.5,30.07,NNE,24,12.0,25.0,47,0.00,,---,0.00,VWS V14.00,2013-04-01 20:55:00,
2013-04-01 16:57:00,34.6,16.0,30.07,NNW,336,15.0,25.0,46,0.00,,---,0.00,VWS V14.00,2013-04-01 20:57:00,
2013-04-01 16:59:00,34.4,15.8,30.08,NNW,330,9.0,21.0,46,0.00,,---,0.00,VWS V14.00,2013-04-01 20:59:00,
2013-04-01 17:01:00,33.9,15.3,30.08,NNW,340,9.0,21.0,46,0.00,,---,0.00,VWS V14.00,2013-04-01 21:01:00,
2013-04-01 17:02:00,33.5,15.4,30.08,NW,323,15.0,25.0,47,0.00,,---,0.00,VWS V14.00,2013-04-01 21:02:00,
2013-04-01 17:04:00,33.0,15.0,30.08,NNW,334,8.0,25.0,47,0.00,,---,0.00,VWS V14.00,2013-04-01 21:04:00,
2013-04-01 17:05:00,32.9,15.4,30.08,NNW,336,11.0,25.0,48,0.00,,---,0.00,VWS V14.00,2013-04-01 21:05:00,
2013-04-01 17:06:00,32.8,15.3,30.08,NE,55,12.0,25.0,48,0.00,,---,0.00,VWS V14.00,2013-04-01 21:06:00,
2013-04-01 17:09:00,32.6,15.6,30.08,NW,313,11.0,25.0,49,0.00,,---,0.00,VWS V14.00,2013-04-01 21:09:00,
2013-04-01 17:11:00,32.8,16.2,30.08,NW,310,19.0,25.0,50,0.00,,---,0.00,VWS V14.00,2013-04-01 21:11:00,
2013-04-01 17:12:00,32.8,15.8,30.08,NNW,329,16.0,25.0,49,0.00,,---,0.00,VWS V14.00,2013-04-01 21:12:00,
2013-04-01 17:15:00,33.2,16.1,30.08,NNW,344,6.0,25.0,49,0.00,,---,0.00,VWS V14.00,2013-04-01 21:15:00,
2013-04-01 17:16:00,33.4,16.3,30.08,WNW,295,5.0,25.0,49,0.00,,---,0.00,VWS V14.00,2013-04-01 21:16:00,
2013-04-01 17:17:00,33.8,16.7,30.08,WNW,296,14.0,25.0,49,0.00,,---,0.00,VWS V14.00,2013-04-01 21:17:00,
2013-04-01 17:18:00,34.1,16.5,30.08,NW,311,13.0,25.0,48,0.00,,---,0.00,VWS V14.00,2013-04-01 21:18:00,
2013-04-01 17:22:00,34.4,16.8,30.08,NW,307,10.0,25.0,48,0.00,,---,0.00,VWS V14.00,2013-04-01 21:22:00,
2013-04-01 17:24:00,34.4,16.3,30.08,WNW,294,15.0,25.0,47,0.00,,---,0.00,VWS V14.00,2013-04-01 21:24:00,
2013-04-01 17:26:00,34.4,15.8,30.08,WNW,284,13.0,25.0,46,0.00,,---,0.00,VWS V14.00,2013-04-01 21:26:00,
2013-04-01 17:28:00,34.5,15.9,30.08,WNW,301,13.0,25.0,46,0.00,,---,0.00,VWS V14.00,2013-04-01 21:28:00,
2013-04-01 17:29:00,34.5,15.9,30.08,WNW,299,13.0,15.0,46,0.00,,---,0.00,VWS V14.00,2013-04-01 21:29:00,
2013-04-01 17:32:00,34.4,16.3,30.08,NW,310,4.0,22.0,47,0.00,,---,0.00,VWS V14.00,2013-04-01 21:32:00,
2013-04-01 17:34:00,34.4,16.8,30.08,NW,325,7.0,22.0,48,0.00,,---,0.00,VWS V14.00,2013-04-01 21:34:00,
2013-04-01 17:36:00,34.2,16.1,30.08,NNW,342,7.0,23.0,47,0.00,,---,0.00,VWS V14.00,2013-04-01 21:36:00,
2013-04-01 17:38:00,33.9,15.8,30.08,NW,314,8.0,23.0,47,0.00,,---,0.00,VWS V14.00,2013-04-01 21:38:00,
2013-04-01 17:39:00,34.0,16.4,30.08,NW,319,5.0,23.0,48,0.00,,---,0.00,VWS V14.00,2013-04-01 21:39:00,
2013-04-01 17:40:00,34.0,16.4,30.08,NNW,334,11.0,23.0,48,0.00,,---,0.00,VWS V14.00,2013-04-01 21:40:00,
2013-04-01 17:43:00,34.2,16.6,30.08,WNW,298,5.0,23.0,48,0.00,,---,0.00,VWS V14.00,2013-04-01 21:43:00,
2013-04-01 17:44:00,34.2,16.6,30.08,WNW,296,20.0,23.0,48,0.00,,---,0.00,VWS V14.00,2013-04-01 21:44:00,
2013-04-01 17:45:00,34.1,17.0,30.08,WNW,303,5.0,23.0,49,0.00,,---,0.00,VWS V14.00,2013-04-01 21:45:00,
2013-04-01 17:48:00,33.8,16.7,30.08,NW,310,13.0,23.0,49,0.00,,---,0.00,VWS V14.00,2013-04-01 21:48:00,
2013-04-01 17:49:00,33.7,16.6,30.08,NNW,338,6.0,23.0,49,0.00,,---,0.00,VWS V14.00,2013-04-01 21:49:00,
2013-04-01 17:50:00,33.7,16.6,30.08,NNW,339,5.0,23.0,49,0.00,,---,0.00,VWS V14.00,2013-04-01 21:50:00,
2013-04-01 17:54:00,33.3,16.2,30.08,North,355,4.0,23.0,49,0.00,,---,0.00,VWS V14.00,2013-04-01 21:54:00,
2013-04-01 17:55:00,33.2,16.1,30.08,NNW,334,16.0,23.0,49,0.00,,---,0.00,VWS V14.00,2013-04-01 21:55:00,
2013-04-01 17:58:00,32.9,16.3,30.08,North,351,14.0,23.0,50,0.00,,---,0.00,VWS V14.00,2013-04-01 21:58:00,
2013-04-01 18:00:00,32.6,16.0,30.08,NNW,333,10.0,15.0,50,0.00,,---,0.00,VWS V14.00,2013-04-01 22:00:00,
2013-04-01 18:01:00,32.6,16.0,30.08,NW,319,13.0,15.0,50,0.00,,---,0.00,VWS V14.00,2013-04-01 22:01:00,
2013-04-01 18:05:00,32.8,16.7,30.08,North,355,9.0,19.0,51,0.00,,---,0.00,VWS V14.00,2013-04-01 22:05:00,
2013-04-01 18:06:00,32.9,16.8,30.08,North,350,10.0,19.0,51,0.00,,---,0.00,VWS V14.00,2013-04-01 22:06:00,
2013-04-01 18:07:00,33.1,17.0,30.08,NNE,15,21.0,21.0,51,0.00,,---,0.00,VWS V14.00,2013-04-01 22:07:00,
2013-04-01 18:09:00,33.3,16.7,30.08,North,355,16.0,21.0,50,0.00,,---,0.00,VWS V14.00,2013-04-01 22:09:00,
2013-04-01 18:11:00,33.5,16.9,30.08,NNE,29,12.0,21.0,50,0.00,,---,0.00,VWS V14.00,2013-04-01 22:11:00,
2013-04-01 18:13:00,33.5,16.9,30.08,NNW,348,7.0,21.0,50,0.00,,---,0.00,VWS V14.00,2013-04-01 22:13:00,
2013-04-01 18:14:00,33.7,17.0,30.08,WNW,300,5.0,21.0,50,0.00,,---,0.00,VWS V14.00,2013-04-01 22:14:00,
2013-04-01 18:17:00,34.0,17.3,30.08,NNW,327,4.0,21.0,50,0.00,,---,0.00,VWS V14.00,2013-04-01 22:17:00,
2013-04-01 18:19:00,34.2,17.5,30.08,NNW,328,7.0,21.0,50,0.00,,---,0.00,VWS V14.00,2013-04-01 22:19:00,
2013-04-01 18:20:00,34.4,17.2,30.08,NW,317,3.0,21.0,49,0.00,,---,0.00,VWS V14.00,2013-04-01 22:20:00,
2013-04-01 18:24:00,34.3,17.1,30.08,West,263,9.0,24.0,49,0.00,,---,0.00,VWS V14.00,2013-04-01 22:24:00,
2013-04-01 18:25:00,34.3,17.1,30.08,WNW,284,9.0,24.0,49,0.00,,---,0.00,VWS V14.00,2013-04-01 22:25:00,
2013-04-01 18:26:00,34.2,17.0,30.08,NW,313,2.0,24.0,49,0.00,,---,0.00,VWS V14.00,2013-04-01 22:26:00,
2013-04-01 18:27:00,34.2,17.0,30.08,West,281,14.0,24.0,49,0.00,,---,0.00,VWS V14.00,2013-04-01 22:27:00,
2013-04-01 18:30:00,33.9,16.8,30.08,NW,313,6.0,20.0,49,0.00,,---,0.00,VWS V14.00,2013-04-01 22:30:00,
2013-04-01 18:32:00,33.9,17.2,30.08,NW,304,7.0,20.0,50,0.00,,---,0.00,VWS V14.00,2013-04-01 22:32:00,
2013-04-01 18:33:00,34.0,17.3,30.08,NNW,334,3.0,20.0,50,0.00,,---,0.00,VWS V14.00,2013-04-01 22:33:00,
2013-04-01 18:35:00,34.2,17.5,30.08,North,360,5.0,20.0,50,0.00,,---,0.00,VWS V14.00,2013-04-01 22:35:00,
2013-04-01 18:36:00,34.2,17.5,30.08,NNW,335,3.0,20.0,50,0.00,,---,0.00,VWS V14.00,2013-04-01 22:36:00,
2013-04-01 18:37:00,34.2,17.5,30.08,North,5,11.0,20.0,50,0.00,,---,0.00,VWS V14.00,2013-04-01 22:37:00,
2013-04-01 18:39:00,33.9,17.2,30.08,NW,325,12.0,20.0,50,0.00,,---,0.00,VWS V14.00,2013-04-01 22:39:00,
2013-04-01 18:42:00,33.7,17.0,30.08,NW,312,10.0,20.0,50,0.00,,---,0.00,VWS V14.00,2013-04-01 22:42:00,
2013-04-01 18:43:00,33.7,17.0,30.08,NW,306,19.0,20.0,50,0.00,,---,0.00,VWS V14.00,2013-04-01 22:43:00,
2013-04-01 18:45:00,33.7,17.0,30.08,NNW,333,12.0,20.0,50,0.00,,---,0.00,VWS V14.00,2013-04-01 22:45:00,
2013-04-01 18:48:00,33.8,17.1,30.08,WNW,294,11.0,20.0,50,0.00,,---,0.00,VWS V14.00,2013-04-01 22:48:00,
2013-04-01 18:49:00,33.8,17.1,30.08,NW,325,5.0,20.0,50,0.00,,---,0.00,VWS V14.00,2013-04-01 22:49:00,
2013-04-01 18:50:00,33.9,17.2,30.08,West,275,3.0,20.0,50,0.00,,---,0.00,VWS V14.00,2013-04-01 22:50:00,
2013-04-01 18:51:00,34.0,17.3,30.08,WNW,298,5.0,20.0,50,0.00,,---,0.00,VWS V14.00,2013-04-01 22:51:00,
2013-04-01 18:54:00,34.1,17.4,30.08,WNW,295,12.0,20.0,50,0.00,,---,0.00,VWS V14.00,2013-04-01 22:54:00,
2013-04-01 18:57:00,34.2,17.5,30.08,NW,309,11.0,20.0,50,0.00,,---,0.00,VWS V14.00,2013-04-01 22:57:00,
2013-04-01 18:59:00,34.1,17.0,30.08,West,272,7.0,7.0,49,0.00,,---,0.00,VWS V14.00,2013-04-01 22:59:00,
2013-04-01 19:00:00,34.1,17.4,30.09,NW,307,12.0,18.0,50,0.00,,---,0.00,VWS V14.00,2013-04-01 23:00:00,
2013-04-01 19:02:00,34.0,17.3,30.08,NW,306,10.0,18.0,50,0.00,,---,0.00,VWS V14.00,2013-04-01 23:02:00,
2013-04-01 19:05:00,33.7,17.0,30.09,WNW,302,10.0,18.0,50,0.00,,---,0.00,VWS V14.00,2013-04-01 23:05:00,
2013-04-01 19:06:00,33.5,16.9,30.09,WNW,300,7.0,22.0,50,0.00,,---,0.00,VWS V14.00,2013-04-01 23:06:00,
2013-04-01 19:07:00,33.2,16.6,30.09,WNW,286,14.0,22.0,50,0.00,,---,0.00,VWS V14.00,2013-04-01 23:07:00,
2013-04-01 19:10:00,32.9,16.3,30.09,WNW,299,10.0,22.0,50,0.00,,---,0.00,VWS V14.00,2013-04-01 23:10:00,
2013-04-01 19:13:00,32.8,16.7,30.09,NNW,331,8.0,22.0,51,0.00,,---,0.00,VWS V14.00,2013-04-01 23:13:00,
2013-04-01 19:14:00,32.7,16.6,30.09,WNW,302,9.0,22.0,51,0.00,,---,0.00,VWS V14.00,2013-04-01 23:14:00,
2013-04-01 19:15:00,32.7,16.6,30.09,WNW,296,8.0,22.0,51,0.00,,---,0.00,VWS V14.00,2013-04-01 23:15:00,
2013-04-01 19:16:00,32.7,16.6,30.09,NW,313,8.0,22.0,51,0.00,,---,0.00,VWS V14.00,2013-04-01 23:16:00,
2013-04-01 19:18:00,32.6,16.5,30.09,NW,314,6.0,22.0,51,0.00,,---,0.00,VWS V14.00,2013-04-01 23:18:00,
2013-04-01 19:19:00,32.6,16.9,30.09,NNW,331,10.0,22.0,52,0.00,,---,0.00,VWS V14.00,2013-04-01 23:19:00,
2013-04-01 19:22:00,32.5,16.9,30.09,WNW,295,10.0,22.0,52,0.00,,---,0.00,VWS V14.00,2013-04-01 23:22:00,
2013-04-01 19:24:00,32.5,16.9,30.09,NW,304,5.0,22.0,52,0.00,,---,0.00,VWS V14.00,2013-04-01 23:24:00,
2013-04-01 19:26:00,32.4,16.8,30.09,NW,325,6.0,22.0,52,0.00,,---,0.00,VWS V14.00,2013-04-01 23:26:00,
2013-04-01 19:28:00,32.3,16.7,30.09,NNW,327,6.0,22.0,52,0.00,,---,0.00,VWS V14.00,2013-04-01 23:28:00,
2013-04-01 19:30:00,32.3,17.1,30.09,WNW,302,4.0,17.0,53,0.00,,---,0.00,VWS V14.00,2013-04-01 23:30:00,
2013-04-01 19:31:00,32.3,17.1,30.09,NW,310,11.0,17.0,53,0.00,,---,0.00,VWS V14.00,2013-04-01 23:31:00,
2013-04-01 19:33:00,32.3,17.1,30.09,NW,314,6.0,17.0,53,0.00,,---,0.00,VWS V14.00,2013-04-01 23:33:00,
2013-04-01 19:35:00,32.3,17.1,30.09,NW,309,4.0,17.0,53,0.00,,---,0.00,VWS V14.00,2013-04-01 23:35:00,
2013-04-01 19:38:00,32.4,17.2,30.09,WNW,296,2.0,17.0,53,0.00,,---,0.00,VWS V14.00,2013-04-01 23:38:00,
2013-04-01 19:40:00,32.4,17.2,30.09,NW,308,3.0,17.0,53,0.00,,---,0.00,VWS V14.00,2013-04-01 23:40:00,
2013-04-01 19:42:00,32.4,17.2,30.09,WNW,303,7.0,17.0,53,0.00,,---,0.00,VWS V14.00,2013-04-01 23:42:00,
2013-04-01 19:44:00,32.4,17.2,30.09,WNW,295,7.0,17.0,53,0.00,,---,0.00,VWS V14.00,2013-04-01 23:44:00,
2013-04-01 19:47:00,32.2,17.0,30.09,WNW,299,11.0,17.0,53,0.00,,---,0.00,VWS V14.00,2013-04-01 23:47:00,
2013-04-01 19:48:00,32.0,16.8,30.09,NW,318,14.0,17.0,53,0.00,,---,0.00,VWS V14.00,2013-04-01 23:48:00,
2013-04-01 19:49:00,32.0,16.8,30.09,NW,315,11.0,17.0,53,0.00,,---,0.00,VWS V14.00,2013-04-01 23:49:00,
2013-04-01 19:52:00,31.9,17.2,30.09,NW,315,3.0,17.0,54,0.00,,---,0.00,VWS V14.00,2013-04-01 23:52:00,
2013-04-01 19:54:00,31.9,17.2,30.09,WNW,302,4.0,17.0,54,0.00,,---,0.00,VWS V14.00,2013-04-01 23:54:00,
2013-04-01 19:55:00,31.9,17.2,30.09,NW,306,3.0,17.0,54,0.00,,---,0.00,VWS V14.00,2013-04-01 23:55:00,
2013-04-01 19:58:00,31.7,17.0,30.09,NW,311,5.0,17.0,54,0.00,,---,0.00,VWS V14.00,2013-04-01 23:58:00,
2013-04-01 20:01:00,31.7,17.0,30.09,NNW,342,4.0,6.0,54,0.00,,---,0.00,VWS V14.00,2013-04-02 00:01:00,
2013-04-01 20:04:00,31.6,17.3,30.09,NW,316,6.0,10.0,55,0.00,,---,0.00,VWS V14.00,2013-04-02 00:04:00,
2013-04-01 20:05:00,31.5,17.2,30.09,NNW,327,2.0,10.0,55,0.00,,---,0.00,VWS V14.00,2013-04-02 00:05:00,
2013-04-01 20:07:00,31.5,17.2,30.09,NNW,344,4.0,10.0,55,0.00,,---,0.00,VWS V14.00,2013-04-02 00:07:00,
2013-04-01 20:09:00,31.4,17.1,30.09,NW,321,2.0,10.0,55,0.00,,---,0.00,VWS V14.00,2013-04-02 00:09:00,
2013-04-01 20:10:00,31.3,17.0,30.10,NW,317,3.0,10.0,55,0.00,,---,0.00,VWS V14.00,2013-04-02 00:10:00,
2013-04-01 20:12:00,31.2,16.9,30.10,NW,318,2.0,10.0,55,0.00,,---,0.00,VWS V14.00,2013-04-02 00:12:00,
2013-04-01 20:14:00,31.2,17.3,30.09,NW,319,2.0,10.0,56,0.00,,---,0.00,VWS V14.00,2013-04-02 00:14:00,
2013-04-01 20:16:00,31.1,17.2,30.09,NNW,331,4.0,10.0,56,0.00,,---,0.00,VWS V14.00,2013-04-02 00:16:00,
2013-04-01 20:17:00,31.1,17.2,30.09,NNW,328,1.0,10.0,56,0.00,,---,0.00,VWS V14.00,2013-04-02 00:17:00,
2013-04-01 20:18:00,31.0,17.2,30.09,NNW,328,1.0,10.0,56,0.00,,---,0.00,VWS V14.00,2013-04-02 00:18:00,
2013-04-01 20:19:00,31.0,17.2,30.09,NNW,328,1.0,10.0,56,0.00,,---,0.00,VWS V14.00,2013-04-02 00:19:00,
2013-04-01 20:22:00,31.0,17.2,30.09,NNW,337,5.0,10.0,56,0.00,,---,0.00,VWS V14.00,2013-04-02 00:22:00,
2013-04-01 20:24:00,30.9,17.1,30.10,North,355,3.0,10.0,56,0.00,,---,0.00,VWS V14.00,2013-04-02 00:24:00,
2013-04-01 20:25:00,30.9,17.1,30.10,North,355,4.0,10.0,56,0.00,,---,0.00,VWS V14.00,2013-04-02 00:25:00,
2013-04-01 20:28:00,30.8,17.0,30.09,NW,322,0.0,10.0,56,0.00,,---,0.00,VWS V14.00,2013-04-02 00:28:00,
2013-04-01 20:29:00,30.8,17.4,30.09,NW,321,1.0,2.0,57,0.00,,---,0.00,VWS V14.00,2013-04-02 00:29:00,
2013-04-01 20:30:00,30.8,17.4,30.09,NW,318,2.0,4.0,57,0.00,,---,0.00,VWS V14.00,2013-04-02 00:30:00,
2013-04-01 20:31:00,30.8,17.4,30.09,NW,309,3.0,4.0,57,0.00,,---,0.00,VWS V14.00,2013-04-02 00:31:00,
2013-04-01 20:34:00,30.8,17.4,30.09,WNW,290,1.0,7.0,57,0.00,,---,0.00,VWS V14.00,2013-04-02 00:34:00,
2013-04-01 20:36:00,30.7,17.3,30.09,NW,309,1.0,7.0,57,0.00,,---,0.00,VWS V14.00,2013-04-02 00:36:00,
2013-04-01 20:37:00,30.7,17.3,30.09,NW,309,2.0,7.0,57,0.00,,---,0.00,VWS V14.00,2013-04-02 00:37:00,
2013-04-01 20:40:00,30.6,17.2,30.10,NW,309,1.0,7.0,57,0.00,,---,0.00,VWS V14.00,2013-04-02 00:40:00,
2013-04-01 20:42:00,30.6,17.6,30.10,NW,309,2.0,7.0,58,0.00,,---,0.00,VWS V14.00,2013-04-02 00:42:00,
2013-04-01 20:43:00,30.6,17.6,30.10,NW,309,1.0,7.0,58,0.00,,---,0.00,VWS V14.00,2013-04-02 00:43:00,
2013-04-01 20:46:00,30.6,17.6,30.09,NW,309,2.0,7.0,58,0.00,,---,0.00,VWS V14.00,2013-04-02 00:46:00,
2013-04-01 20:47:00,30.5,17.5,30.09,NW,309,1.0,7.0,58,0.00,,---,0.00,VWS V14.00,2013-04-02 00:47:00,
2013-04-01 20:49:00,30.5,17.5,30.10,NW,309,2.0,7.0,58,0.00,,---,0.00,VWS V14.00,2013-04-02 00:49:00,
2013-04-01 20:51:00,30.5,17.5,30.09,NW,309,1.0,7.0,58,0.00,,---,0.00,VWS V14.00,2013-04-02 00:51:00,
2013-04-01 20:52:00,30.4,17.4,30.10,NW,309,1.0,7.0,58,0.00,,---,0.00,VWS V14.00,2013-04-02 00:52:00,
2013-04-01 20:53:00,30.4,17.4,30.10,NW,309,2.0,7.0,58,0.00,,---,0.00,VWS V14.00,2013-04-02 00:53:00,
2013-04-01 20:54:00,30.4,17.4,30.10,NW,309,1.0,7.0,58,0.00,,---,0.00,VWS V14.00,2013-04-02 00:54:00,
2013-04-01 20:57:00,30.4,17.4,30.10,NW,309,2.0,7.0,58,0.00,,---,0.00,VWS V14.00,2013-04-02 00:57:00,
2013-04-01 20:58:00,30.4,17.4,30.10,NW,313,1.0,7.0,58,0.00,,---,0.00,VWS V14.00,2013-04-02 00:58:00,
2013-04-01 20:59:00,30.4,17.4,30.10,NW,314,2.0,3.0,58,0.00,,---,0.00,VWS V14.00,2013-04-02 00:59:00,
2013-04-01 21:02:00,30.4,17.8,30.10,NNW,328,1.0,3.0,59,0.00,,---,0.00,VWS V14.00,2013-04-02 01:02:00,
2013-04-01 21:04:00,30.4,17.8,30.10,NNW,327,1.0,3.0,59,0.00,,---,0.00,VWS V14.00,2013-04-02 01:04:00,
2013-04-01 21:05:00,30.4,17.8,30.10,NW,313,2.0,4.0,59,0.00,,---,0.00,VWS V14.00,2013-04-02 01:05:00,
2013-04-01 21:08:00,30.4,17.8,30.10,NW,312,1.0,4.0,59,0.00,,---,0.00,VWS V14.00,2013-04-02 01:08:00,
2013-04-01 21:09:00,30.4,17.8,30.10,NW,312,1.0,4.0,59,0.00,,---,0.00,VWS V14.00,2013-04-02 01:09:00,
2013-04-01 21:14:00,30.4,17.8,30.10,NW,312,0.0,4.0,59,0.00,,---,0.00,VWS V14.00,2013-04-02 01:14:00,
2013-04-01 21:15:00,30.4,17.8,30.10,NW,312,2.0,4.0,59,0.00,,---,0.00,VWS V14.00,2013-04-02 01:15:00,
2013-04-01 21:17:00,30.4,17.8,30.10,NW,313,3.0,4.0,59,0.00,,---,0.00,VWS V14.00,2013-04-02 01:17:00,
2013-04-01 21:19:00,30.3,17.7,30.10,NW,316,2.0,4.0,59,0.00,,---,0.00,VWS V14.00,2013-04-02 01:19:00,
2013-04-01 21:20:00,30.3,17.7,30.10,NW,316,2.0,4.0,59,0.00,,---,0.00,VWS V14.00,2013-04-02 01:20:00,
2013-04-01 21:21:00,30.3,17.7,30.10,NW,316,1.0,4.0,59,0.00,,---,0.00,VWS V14.00,2013-04-02 01:21:00,
2013-04-01 21:22:00,30.3,17.7,30.10,NW,315,0.0,4.0,59,0.00,,---,0.00,VWS V14.00,2013-04-02 01:22:00,
2013-04-01 21:26:00,30.3,17.7,30.10,NW,316,1.0,4.0,59,0.00,,---,0.00,VWS V14.00,2013-04-02 01:26:00,
2013-04-01 21:32:00,30.2,18.0,30.10,NW,314,1.0,2.0,60,0.00,,---,0.00,VWS V14.00,2013-04-02 01:32:00,
2013-04-01 21:34:00,30.1,17.9,30.10,NW,314,1.0,2.0,60,0.00,,---,0.00,VWS V14.00,2013-04-02 01:34:00,
2013-04-01 21:35:00,30.1,17.9,30.10,NW,314,1.0,2.0,60,0.00,,---,0.00,VWS V14.00,2013-04-02 01:35:00,
2013-04-01 21:37:00,30.1,17.9,30.10,NW,314,0.0,2.0,60,0.00,,---,0.00,VWS V14.00,2013-04-02 01:37:00,
2013-04-01 21:38:00,30.0,17.8,30.10,NW,314,0.0,2.0,60,0.00,,---,0.00,VWS V14.00,2013-04-02 01:38:00,
2013-04-01 21:40:00,29.9,17.7,30.10,NW,313,0.0,2.0,60,0.00,,---,0.00,VWS V14.00,2013-04-02 01:40:00,
2013-04-01 21:42:00,29.9,17.7,30.11,NW,313,1.0,2.0,60,0.00,,---,0.00,VWS V14.00,2013-04-02 01:42:00,
2013-04-01 21:45:00,29.8,17.6,30.11,NW,311,1.0,2.0,60,0.00,,---,0.00,VWS V14.00,2013-04-02 01:45:00,
2013-04-01 21:46:00,29.7,17.5,30.11,NW,311,1.0,2.0,60,0.00,,---,0.00,VWS V14.00,2013-04-02 01:46:00,
2013-04-01 21:47:00,29.7,17.9,30.11,NW,311,0.0,2.0,61,0.00,,---,0.00,VWS V14.00,2013-04-02 01:47:00,
2013-04-01 21:48:00,29.7,17.5,30.11,NW,311,0.0,2.0,60,0.00,,---,0.00,VWS V14.00,2013-04-02 01:48:00,
2013-04-01 21:51:00,29.6,17.4,30.10,NW,311,1.0,2.0,60,0.00,,---,0.00,VWS V14.00,2013-04-02 01:51:00,
2013-04-01 21:52:00,29.6,17.8,30.10,NW,311,0.0,2.0,61,0.00,,---,0.00,VWS V14.00,2013-04-02 01:52:00,
2013-04-01 21:54:00,29.5,17.7,30.10,NW,311,1.0,2.0,61,0.00,,---,0.00,VWS V14.00,2013-04-02 01:54:00,
2013-04-01 21:55:00,29.5,17.7,30.10,NW,311,2.0,2.0,61,0.00,,---,0.00,VWS V14.00,2013-04-02 01:55:00,
2013-04-01 21:56:00,29.5,17.7,30.10,NW,311,2.0,2.0,61,0.00,,---,0.00,VWS V14.00,2013-04-02 01:56:00,
2013-04-01 21:57:00,29.5,17.7,30.11,NW,311,1.0,2.0,61,0.00,,---,0.00,VWS V14.00,2013-04-02 01:57:00,
2013-04-01 22:01:00,29.4,17.6,30.10,NW,310,0.0,2.0,61,0.00,,---,0.00,VWS V14.00,2013-04-02 02:01:00,
2013-04-01 22:02:00,29.4,18.0,30.10,NW,310,1.0,2.0,62,0.00,,---,0.00,VWS V14.00,2013-04-02 02:02:00,
2013-04-01 22:04:00,29.4,18.0,30.11,NW,310,1.0,2.0,62,0.00,,---,0.00,VWS V14.00,2013-04-02 02:04:00,
2013-04-01 22:07:00,29.4,18.0,30.10,NW,310,0.0,2.0,62,0.00,,---,0.00,VWS V14.00,2013-04-02 02:07:00,
2013-04-01 22:08:00,29.4,18.0,30.11,NW,310,0.0,2.0,62,0.00,,---,0.00,VWS V14.00,2013-04-02 02:08:00,
2013-04-01 22:09:00,29.3,17.9,30.10,NW,310,1.0,2.0,62,0.00,,---,0.00,VWS V14.00,2013-04-02 02:09:00,
2013-04-01 22:11:00,29.3,17.9,30.11,NW,310,1.0,2.0,62,0.00,,---,0.00,VWS V14.00,2013-04-02 02:11:00,
2013-04-01 22:13:00,29.3,17.9,30.11,NW,310,0.0,2.0,62,0.00,,---,0.00,VWS V14.00,2013-04-02 02:13:00,
2013-04-01 22:14:00,29.3,17.9,30.11,NW,310,0.0,2.0,62,0.00,,---,0.00,VWS V14.00,2013-04-02 02:14:00,
2013-04-01 22:15:00,29.3,17.9,30.11,NW,310,0.0,2.0,62,0.00,,---,0.00,VWS V14.00,2013-04-02 02:15:00,
2013-04-01 22:17:00,29.3,17.9,30.11,NW,310,1.0,3.0,62,0.00,,---,0.00,VWS V14.00,2013-04-02 02:17:00,
2013-04-01 22:20:00,29.2,17.8,30.11,NW,310,1.0,3.0,62,0.00,,---,0.00,VWS V14.00,2013-04-02 02:20:00,
2013-04-01 22:22:00,29.2,17.8,30.10,NW,310,2.0,3.0,62,0.00,,---,0.00,VWS V14.00,2013-04-02 02:22:00,
2013-04-01 22:23:00,29.2,17.8,30.11,NW,310,1.0,3.0,62,0.00,,---,0.00,VWS V14.00,2013-04-02 02:23:00,
2013-04-01 22:26:00,29.1,18.1,30.11,NW,310,1.0,3.0,63,0.00,,---,0.00,VWS V14.00,2013-04-02 02:26:00,
2013-04-01 22:28:00,29.1,18.1,30.11,NW,310,0.0,3.0,63,0.00,,---,0.00,VWS V14.00,2013-04-02 02:28:00,
2013-04-01 22:29:00,29.1,18.1,30.11,NW,310,0.0,0.0,63,0.00,,---,0.00,VWS V14.00,2013-04-02 02:29:00,
2013-04-01 22:31:00,29.2,18.2,30.11,NW,310,0.0,0.0,63,0.00,,---,0.00,VWS V14.00,2013-04-02 02:31:00,
2013-04-01 22:32:00,29.2,18.2,30.11,NW,310,0.0,0.0,63,0.00,,---,0.00,VWS V14.00,2013-04-02 02:32:00,
2013-04-01 22:33:00,29.2,18.2,30.11,NW,310,0.0,0.0,63,0.00,,---,0.00,VWS V14.00,2013-04-02 02:33:00,
2013-04-01 22:34:00,29.2,18.2,30.11,NW,310,0.0,0.0,63,0.00,,---,0.00,VWS V14.00,2013-04-02 02:34:00,
2013-04-01 22:36:00,29.2,18.2,30.11,NW,310,0.0,0.0,63,0.00,,---,0.00,VWS V14.00,2013-04-02 02:36:00,
2013-04-01 22:40:00,29.2,18.2,30.11,NW,310,0.0,0.0,63,0.00,,---,0.00,VWS V14.00,2013-04-02 02:40:00,
2013-04-01 22:41:00,29.2,18.2,30.11,NW,310,0.0,2.0,63,0.00,,---,0.00,VWS V14.00,2013-04-02 02:41:00,
2013-04-01 22:43:00,29.2,18.2,30.11,NW,310,0.0,2.0,63,0.00,,---,0.00,VWS V14.00,2013-04-02 02:43:00,
2013-04-01 22:45:00,29.2,18.2,30.11,NW,310,2.0,2.0,63,0.00,,---,0.00,VWS V14.00,2013-04-02 02:45:00,
2013-04-01 22:47:00,29.2,18.2,30.11,NW,310,0.0,2.0,63,0.00,,---,0.00,VWS V14.00,2013-04-02 02:47:00,
2013-04-01 22:48:00,29.2,18.2,30.11,NW,310,0.0,2.0,63,0.00,,---,0.00,VWS V14.00,2013-04-02 02:48:00,
2013-04-01 22:49:00,29.2,18.2,30.11,NW,310,1.0,2.0,63,0.00,,---,0.00,VWS V14.00,2013-04-02 02:49:00,
2013-04-01 22:51:00,29.2,18.2,30.11,NW,310,0.0,2.0,63,0.00,,---,0.00,VWS V14.00,2013-04-02 02:51:00,
2013-04-01 22:53:00,29.2,18.2,30.11,NW,310,0.0,2.0,63,0.00,,---,0.00,VWS V14.00,2013-04-02 02:53:00,
2013-04-01 22:55:00,29.2,18.2,30.11,NW,310,0.0,2.0,63,0.00,,---,0.00,VWS V14.00,2013-04-02 02:55:00,
2013-04-01 22:58:00,29.2,18.2,30.11,NW,310,0.0,2.0,63,0.00,,---,0.00,VWS V14.00,2013-04-02 02:58:00,
2013-04-01 22:59:00,29.2,18.2,30.11,NW,310,0.0,0.0,63,0.00,,---,0.00,VWS V14.00,2013-04-02 02:59:00,
2013-04-01 23:02:00,29.2,18.2,30.12,NW,310,0.0,2.0,63,0.00,,---,0.00,VWS V14.00,2013-04-02 03:02:00,
2013-04-01 23:03:00,29.3,18.3,30.11,NW,310,0.0,2.0,63,0.00,,---,0.00,VWS V14.00,2013-04-02 03:03:00,
2013-04-01 23:04:00,29.3,18.3,30.11,NW,310,0.0,2.0,63,0.00,,---,0.00,VWS V14.00,2013-04-02 03:04:00,
2013-04-01 23:09:00,29.4,18.4,30.11,NW,309,1.0,2.0,63,0.00,,---,0.00,VWS V14.00,2013-04-02 03:09:00,
2013-04-01 23:10:00,29.4,18.4,30.11,NW,309,1.0,2.0,63,0.00,,---,0.00,VWS V14.00,2013-04-02 03:10:00,
2013-04-01 23:14:00,29.5,18.5,30.11,NW,309,0.0,2.0,63,0.00,,---,0.00,VWS V14.00,2013-04-02 03:14:00,
2013-04-01 23:15:00,29.5,18.5,30.11,NW,309,2.0,2.0,63,0.00,,---,0.00,VWS V14.00,2013-04-02 03:15:00,
2013-04-01 23:16:00,29.5,18.5,30.11,NW,307,2.0,2.0,63,0.00,,---,0.00,VWS V14.00,2013-04-02 03:16:00,
2013-04-01 23:20:00,29.6,18.9,30.11,NW,307,1.0,2.0,64,0.00,,---,0.00,VWS V14.00,2013-04-02 03:20:00,
2013-04-01 23:22:00,29.7,19.0,30.11,NW,307,0.0,4.0,64,0.00,,---,0.00,VWS V14.00,2013-04-02 03:22:00,
2013-04-01 23:23:00,29.7,19.0,30.11,NW,307,1.0,4.0,64,0.00,,---,0.00,VWS V14.00,2013-04-02 03:23:00,
2013-04-01 23:24:00,29.7,19.0,30.11,NW,307,1.0,4.0,64,0.00,,---,0.00,VWS V14.00,2013-04-02 03:24:00,
2013-04-01 23:25:00,29.7,19.0,30.11,NW,307,2.0,4.0,64,0.00,,---,0.00,VWS V14.00,2013-04-02 03:25:00,
2013-04-01 23:27:00,29.7,19.0,30.11,NW,307,0.0,4.0,64,0.00,,---,0.00,VWS V14.00,2013-04-02 03:27:00,
2013-04-01 23:29:00,29.7,19.4,30.11,NW,306,1.0,3.0,65,0.00,,---,0.00,VWS V14.00,2013-04-02 03:29:00,
2013-04-01 23:32:00,29.7,19.4,30.12,WNW,295,2.0,5.0,65,0.00,,---,0.00,VWS V14.00,2013-04-02 03:32:00,
2013-04-01 23:33:00,29.8,19.5,30.12,WNW,295,2.0,5.0,65,0.00,,---,0.00,VWS V14.00,2013-04-02 03:33:00,
2013-04-01 23:34:00,29.8,19.5,30.12,WNW,295,2.0,5.0,65,0.00,,---,0.00,VWS V14.00,2013-04-02 03:34:00,
2013-04-01 23:35:00,29.8,19.5,30.12,WNW,295,0.0,5.0,65,0.00,,---,0.00,VWS V14.00,2013-04-02 03:35:00,
2013-04-01 23:38:00,29.8,19.8,30.12,WNW,288,4.0,5.0,66,0.00,,---,0.00,VWS V14.00,2013-04-02 03:38:00,
2013-04-01 23:39:00,29.8,19.8,30.12,WNW,286,1.0,5.0,66,0.00,,---,0.00,VWS V14.00,2013-04-02 03:39:00,
2013-04-01 23:40:00,29.8,19.8,30.12,WNW,287,3.0,5.0,66,0.00,,---,0.00,VWS V14.00,2013-04-02 03:40:00,
2013-04-01 23:41:00,29.8,19.8,30.12,WNW,288,1.0,5.0,66,0.00,,---,0.00,VWS V14.00,2013-04-02 03:41:00,
2013-04-01 23:44:00,29.8,20.2,30.12,WNW,294,3.0,7.0,67,0.00,,---,0.00,VWS V14.00,2013-04-02 03:44:00,
2013-04-01 23:45:00,29.8,20.2,30.12,WNW,288,3.0,7.0,67,0.00,,---,0.00,VWS V14.00,2013-04-02 03:45:00,
2013-04-01 23:46:00,29.8,20.5,30.12,West,272,4.0,7.0,68,0.00,,---,0.00,VWS V14.00,2013-04-02 03:46:00,
2013-04-01 23:47:00,29.8,20.5,30.12,West,272,3.0,7.0,68,0.00,,---,0.00,VWS V14.00,2013-04-02 03:47:00,
2013-04-01 23:51:00,29.6,21.0,30.12,NW,304,5.0,10.0,70,0.00,,---,0.00,VWS V14.00,2013-04-02 03:51:00,
2013-04-01 23:53:00,29.4,21.2,30.12,WNW,286,5.0,10.0,71,0.00,,---,0.00,VWS V14.00,2013-04-02 03:53:00,
2013-04-01 23:55:00,29.2,21.3,30.12,WNW,288,2.0,10.0,72,0.00,,---,0.00,VWS V14.00,2013-04-02 03:55:00,
2013-04-01 23:58:00,28.8,21.6,30.12,West,277,4.0,10.0,74,0.00,,---,0.00,VWS V14.00,2013-04-02 03:58:00,
2013-04-01 23:59:00,28.8,21.9,30.12,WNW,286,2.0,4.0,75,0.00,,---,0.00,VWS V14.00,2013-04-02 03:59:00,